<?xml version="1.0" encoding="UTF-8" standalone="no" ?>
<gpx xmlns="http://www.topografix.com/GPX/1/1" xmlns:xsi="http://www.w3.org/2001/XMLSchema-instance" xsi:schemaLocation="http://www.topografix.com/GPX/1/1 http://www.topografix.com/GPX/1/1/gpx.xsd" version="1.1" creator="VisuGPX - https://www.visugpx.com">
  <metadata>
    <name>Blanchemer - Col de l'Etang</name>
    <desc><![CDATA[File with points/tracks from LocusWorld/]]></desc>
  </metadata>
  <trk>
    <name><![CDATA[2022-03-19 14:43]]></name>
    <extensions>
      <line xmlns="http://www.topografix.com/GPX/gpx_style/0/2">
        <color>FF0000</color>
        <opacity>0.78</opacity>
        <width>3.0</width>
      </line>
    </extensions>
    <trkseg>
      <trkpt lat="48.02515" lon="6.95964">
        <ele>875.21</ele>
        <time>2022-03-19T13:43:35.000Z</time>
      </trkpt>
      <trkpt lat="48.02514" lon="6.95963">
        <ele>864.27</ele>
        <time>2022-03-19T13:44:29.000Z</time>
      </trkpt>
      <trkpt lat="48.02502" lon="6.95945">
        <ele>862.08</ele>
        <time>2022-03-19T13:44:38.538Z</time>
      </trkpt>
      <trkpt lat="48.02489" lon="6.9594">
        <ele>859.92</ele>
        <time>2022-03-19T13:44:48.000Z</time>
      </trkpt>
      <trkpt lat="48.02481" lon="6.95954">
        <ele>857.62</ele>
        <time>2022-03-19T13:44:59.000Z</time>
      </trkpt>
      <trkpt lat="48.02471" lon="6.95957">
        <ele>855.33</ele>
        <time>2022-03-19T13:45:08.454Z</time>
      </trkpt>
      <trkpt lat="48.02463" lon="6.9596">
        <ele>853.95</ele>
        <time>2022-03-19T13:45:18.000Z</time>
      </trkpt>
      <trkpt lat="48.02462" lon="6.95958">
        <ele>852.8</ele>
        <time>2022-03-19T13:45:28.000Z</time>
      </trkpt>
      <trkpt lat="48.02464" lon="6.95956">
        <ele>851.77</ele>
        <time>2022-03-19T13:45:38.000Z</time>
      </trkpt>
      <trkpt lat="48.02463" lon="6.95957">
        <ele>850.18</ele>
        <time>2022-03-19T13:45:56.000Z</time>
      </trkpt>
      <trkpt lat="48.02456" lon="6.95969">
        <ele>849.32</ele>
        <time>2022-03-19T13:46:06.000Z</time>
      </trkpt>
      <trkpt lat="48.02452" lon="6.95974">
        <ele>848.66</ele>
        <time>2022-03-19T13:46:15.358Z</time>
      </trkpt>
      <trkpt lat="48.02444" lon="6.95983">
        <ele>848.06</ele>
        <time>2022-03-19T13:46:26.000Z</time>
      </trkpt>
      <trkpt lat="48.02443" lon="6.9599">
        <ele>847.31</ele>
        <time>2022-03-19T13:46:35.551Z</time>
      </trkpt>
      <trkpt lat="48.02441" lon="6.96003">
        <ele>846.61</ele>
        <time>2022-03-19T13:46:44.602Z</time>
      </trkpt>
      <trkpt lat="48.02442" lon="6.96009">
        <ele>846.61</ele>
        <time>2022-03-19T13:46:55.000Z</time>
      </trkpt>
      <trkpt lat="48.02441" lon="6.96025">
        <ele>846.61</ele>
        <time>2022-03-19T13:47:05.000Z</time>
      </trkpt>
      <trkpt lat="48.02438" lon="6.96043">
        <ele>846.56</ele>
        <time>2022-03-19T13:47:14.663Z</time>
      </trkpt>
      <trkpt lat="48.02436" lon="6.96056">
        <ele>846.82</ele>
        <time>2022-03-19T13:47:25.000Z</time>
      </trkpt>
      <trkpt lat="48.02432" lon="6.96071">
        <ele>847.27</ele>
        <time>2022-03-19T13:47:34.790Z</time>
      </trkpt>
      <trkpt lat="48.02429" lon="6.96079">
        <ele>847.73</ele>
        <time>2022-03-19T13:47:44.000Z</time>
      </trkpt>
      <trkpt lat="48.02426" lon="6.96094">
        <ele>848.41</ele>
        <time>2022-03-19T13:47:53.739Z</time>
      </trkpt>
      <trkpt lat="48.02428" lon="6.96106">
        <ele>849.09</ele>
        <time>2022-03-19T13:48:03.352Z</time>
      </trkpt>
      <trkpt lat="48.02428" lon="6.96119">
        <ele>849.71</ele>
        <time>2022-03-19T13:48:13.000Z</time>
      </trkpt>
      <trkpt lat="48.02427" lon="6.96129">
        <ele>850.02</ele>
        <time>2022-03-19T13:48:23.000Z</time>
      </trkpt>
      <trkpt lat="48.02425" lon="6.96143">
        <ele>850.06</ele>
        <time>2022-03-19T13:48:33.000Z</time>
      </trkpt>
      <trkpt lat="48.0242" lon="6.96163">
        <ele>850.08</ele>
        <time>2022-03-19T13:48:42.834Z</time>
      </trkpt>
      <trkpt lat="48.02418" lon="6.9618">
        <ele>850.29</ele>
        <time>2022-03-19T13:48:52.000Z</time>
      </trkpt>
      <trkpt lat="48.02418" lon="6.962">
        <ele>850.76</ele>
        <time>2022-03-19T13:49:01.723Z</time>
      </trkpt>
      <trkpt lat="48.02416" lon="6.96211">
        <ele>851.34</ele>
        <time>2022-03-19T13:49:12.000Z</time>
      </trkpt>
      <trkpt lat="48.02409" lon="6.96217">
        <ele>851.91</ele>
        <time>2022-03-19T13:49:21.692Z</time>
      </trkpt>
      <trkpt lat="48.02411" lon="6.96227">
        <ele>852.33</ele>
        <time>2022-03-19T13:49:30.831Z</time>
      </trkpt>
      <trkpt lat="48.02415" lon="6.96235">
        <ele>852.72</ele>
        <time>2022-03-19T13:49:40.000Z</time>
      </trkpt>
      <trkpt lat="48.0241" lon="6.96242">
        <ele>853.1</ele>
        <time>2022-03-19T13:49:49.515Z</time>
      </trkpt>
      <trkpt lat="48.02395" lon="6.96253">
        <ele>853.35</ele>
        <time>2022-03-19T13:50:00.000Z</time>
      </trkpt>
      <trkpt lat="48.02383" lon="6.96269">
        <ele>853.78</ele>
        <time>2022-03-19T13:50:10.000Z</time>
      </trkpt>
      <trkpt lat="48.02377" lon="6.96283">
        <ele>854.26</ele>
        <time>2022-03-19T13:50:19.359Z</time>
      </trkpt>
      <trkpt lat="48.02372" lon="6.96297">
        <ele>854.64</ele>
        <time>2022-03-19T13:50:28.396Z</time>
      </trkpt>
      <trkpt lat="48.02367" lon="6.96306">
        <ele>854.81</ele>
        <time>2022-03-19T13:50:38.000Z</time>
      </trkpt>
      <trkpt lat="48.02361" lon="6.96306">
        <ele>855.45</ele>
        <time>2022-03-19T13:50:47.293Z</time>
      </trkpt>
      <trkpt lat="48.02352" lon="6.96309">
        <ele>856.37</ele>
        <time>2022-03-19T13:50:58.000Z</time>
      </trkpt>
      <trkpt lat="48.02342" lon="6.96316">
        <ele>857.04</ele>
        <time>2022-03-19T13:51:07.620Z</time>
      </trkpt>
      <trkpt lat="48.02331" lon="6.96318">
        <ele>857.94</ele>
        <time>2022-03-19T13:51:16.812Z</time>
      </trkpt>
      <trkpt lat="48.02317" lon="6.96331">
        <ele>859.29</ele>
        <time>2022-03-19T13:51:26.331Z</time>
      </trkpt>
      <trkpt lat="48.02311" lon="6.96348">
        <ele>861.21</ele>
        <time>2022-03-19T13:51:35.819Z</time>
      </trkpt>
      <trkpt lat="48.02304" lon="6.9636">
        <ele>863.13</ele>
        <time>2022-03-19T13:51:45.811Z</time>
      </trkpt>
      <trkpt lat="48.02297" lon="6.96364">
        <ele>865.4</ele>
        <time>2022-03-19T13:51:54.839Z</time>
      </trkpt>
      <trkpt lat="48.02288" lon="6.96365">
        <ele>866.54</ele>
        <time>2022-03-19T13:52:04.000Z</time>
      </trkpt>
      <trkpt lat="48.02283" lon="6.96375">
        <ele>868.14</ele>
        <time>2022-03-19T13:52:15.000Z</time>
      </trkpt>
      <trkpt lat="48.02276" lon="6.96382">
        <ele>869.59</ele>
        <time>2022-03-19T13:52:24.622Z</time>
      </trkpt>
      <trkpt lat="48.02269" lon="6.96386">
        <ele>871.04</ele>
        <time>2022-03-19T13:52:34.874Z</time>
      </trkpt>
      <trkpt lat="48.02265" lon="6.96399">
        <ele>871.89</ele>
        <time>2022-03-19T13:52:44.469Z</time>
      </trkpt>
      <trkpt lat="48.02261" lon="6.9641">
        <ele>872.44</ele>
        <time>2022-03-19T13:52:53.588Z</time>
      </trkpt>
      <trkpt lat="48.02255" lon="6.9642">
        <ele>873</ele>
        <time>2022-03-19T13:53:03.793Z</time>
      </trkpt>
      <trkpt lat="48.02253" lon="6.9643">
        <ele>873.4</ele>
        <time>2022-03-19T13:53:12.840Z</time>
      </trkpt>
      <trkpt lat="48.02249" lon="6.96436">
        <ele>873.63</ele>
        <time>2022-03-19T13:53:22.000Z</time>
      </trkpt>
      <trkpt lat="48.02242" lon="6.96444">
        <ele>873.81</ele>
        <time>2022-03-19T13:53:31.574Z</time>
      </trkpt>
      <trkpt lat="48.02235" lon="6.96447">
        <ele>874</ele>
        <time>2022-03-19T13:53:41.000Z</time>
      </trkpt>
      <trkpt lat="48.0223" lon="6.96457">
        <ele>874.14</ele>
        <time>2022-03-19T13:53:51.000Z</time>
      </trkpt>
      <trkpt lat="48.02224" lon="6.96465">
        <ele>874.23</ele>
        <time>2022-03-19T13:54:00.613Z</time>
      </trkpt>
      <trkpt lat="48.02226" lon="6.96475">
        <ele>874.09</ele>
        <time>2022-03-19T13:54:09.896Z</time>
      </trkpt>
      <trkpt lat="48.02229" lon="6.96493">
        <ele>874.08</ele>
        <time>2022-03-19T13:54:20.000Z</time>
      </trkpt>
      <trkpt lat="48.0223" lon="6.96505">
        <ele>874.22</ele>
        <time>2022-03-19T13:54:31.000Z</time>
      </trkpt>
      <trkpt lat="48.02232" lon="6.96512">
        <ele>874.45</ele>
        <time>2022-03-19T13:54:41.000Z</time>
      </trkpt>
      <trkpt lat="48.02228" lon="6.96526">
        <ele>875.19</ele>
        <time>2022-03-19T13:54:51.000Z</time>
      </trkpt>
      <trkpt lat="48.0222" lon="6.9654">
        <ele>876.12</ele>
        <time>2022-03-19T13:55:00.338Z</time>
      </trkpt>
      <trkpt lat="48.02214" lon="6.96546">
        <ele>877.16</ele>
        <time>2022-03-19T13:55:09.514Z</time>
      </trkpt>
      <trkpt lat="48.02206" lon="6.96551">
        <ele>878.06</ele>
        <time>2022-03-19T13:55:19.000Z</time>
      </trkpt>
      <trkpt lat="48.022" lon="6.96556">
        <ele>879.34</ele>
        <time>2022-03-19T13:55:28.168Z</time>
      </trkpt>
      <trkpt lat="48.02193" lon="6.96556">
        <ele>880.89</ele>
        <time>2022-03-19T13:55:37.396Z</time>
      </trkpt>
      <trkpt lat="48.02186" lon="6.96554">
        <ele>882.41</ele>
        <time>2022-03-19T13:55:47.000Z</time>
      </trkpt>
      <trkpt lat="48.02179" lon="6.96555">
        <ele>884.01</ele>
        <time>2022-03-19T13:55:57.000Z</time>
      </trkpt>
      <trkpt lat="48.02173" lon="6.96562">
        <ele>885.62</ele>
        <time>2022-03-19T13:56:07.000Z</time>
      </trkpt>
      <trkpt lat="48.02167" lon="6.96574">
        <ele>887.34</ele>
        <time>2022-03-19T13:56:17.000Z</time>
      </trkpt>
      <trkpt lat="48.02162" lon="6.96583">
        <ele>888.99</ele>
        <time>2022-03-19T13:56:26.416Z</time>
      </trkpt>
      <trkpt lat="48.02154" lon="6.96589">
        <ele>890.85</ele>
        <time>2022-03-19T13:56:35.840Z</time>
      </trkpt>
      <trkpt lat="48.02148" lon="6.96589">
        <ele>892.25</ele>
        <time>2022-03-19T13:56:46.000Z</time>
      </trkpt>
      <trkpt lat="48.02142" lon="6.96594">
        <ele>894.24</ele>
        <time>2022-03-19T13:56:55.329Z</time>
      </trkpt>
      <trkpt lat="48.02138" lon="6.96599">
        <ele>895.54</ele>
        <time>2022-03-19T13:57:05.000Z</time>
      </trkpt>
      <trkpt lat="48.02133" lon="6.96601">
        <ele>896.6</ele>
        <time>2022-03-19T13:57:15.000Z</time>
      </trkpt>
      <trkpt lat="48.02126" lon="6.96607">
        <ele>898.02</ele>
        <time>2022-03-19T13:57:24.559Z</time>
      </trkpt>
      <trkpt lat="48.02119" lon="6.96611">
        <ele>899.34</ele>
        <time>2022-03-19T13:57:33.917Z</time>
      </trkpt>
      <trkpt lat="48.0211" lon="6.96617">
        <ele>900.48</ele>
        <time>2022-03-19T13:57:44.000Z</time>
      </trkpt>
      <trkpt lat="48.02102" lon="6.96623">
        <ele>901.86</ele>
        <time>2022-03-19T13:57:53.573Z</time>
      </trkpt>
      <trkpt lat="48.02097" lon="6.96628">
        <ele>903.14</ele>
        <time>2022-03-19T13:58:03.000Z</time>
      </trkpt>
      <trkpt lat="48.0209" lon="6.96636">
        <ele>904.25</ele>
        <time>2022-03-19T13:58:12.522Z</time>
      </trkpt>
      <trkpt lat="48.02082" lon="6.96642">
        <ele>905.18</ele>
        <time>2022-03-19T13:58:24.000Z</time>
      </trkpt>
      <trkpt lat="48.02072" lon="6.96646">
        <ele>906.04</ele>
        <time>2022-03-19T13:58:34.000Z</time>
      </trkpt>
      <trkpt lat="48.02063" lon="6.9665">
        <ele>906.85</ele>
        <time>2022-03-19T13:58:43.460Z</time>
      </trkpt>
      <trkpt lat="48.02057" lon="6.96655">
        <ele>907.3</ele>
        <time>2022-03-19T13:58:54.000Z</time>
      </trkpt>
      <trkpt lat="48.02052" lon="6.96663">
        <ele>906.79</ele>
        <time>2022-03-19T13:59:04.000Z</time>
      </trkpt>
      <trkpt lat="48.0205" lon="6.96669">
        <ele>905.62</ele>
        <time>2022-03-19T13:59:14.000Z</time>
      </trkpt>
      <trkpt lat="48.02045" lon="6.96677">
        <ele>904.63</ele>
        <time>2022-03-19T13:59:23.532Z</time>
      </trkpt>
      <trkpt lat="48.02041" lon="6.96688">
        <ele>904.5</ele>
        <time>2022-03-19T13:59:33.000Z</time>
      </trkpt>
      <trkpt lat="48.02037" lon="6.967">
        <ele>904.96</ele>
        <time>2022-03-19T13:59:42.437Z</time>
      </trkpt>
      <trkpt lat="48.0203" lon="6.96716">
        <ele>906.38</ele>
        <time>2022-03-19T13:59:53.000Z</time>
      </trkpt>
      <trkpt lat="48.02025" lon="6.96727">
        <ele>908.45</ele>
        <time>2022-03-19T14:00:03.000Z</time>
      </trkpt>
      <trkpt lat="48.02022" lon="6.9674">
        <ele>910.98</ele>
        <time>2022-03-19T14:00:12.379Z</time>
      </trkpt>
      <trkpt lat="48.02021" lon="6.96753">
        <ele>912.64</ele>
        <time>2022-03-19T14:00:22.000Z</time>
      </trkpt>
      <trkpt lat="48.02027" lon="6.96761">
        <ele>914.32</ele>
        <time>2022-03-19T14:00:31.277Z</time>
      </trkpt>
      <trkpt lat="48.02033" lon="6.96765">
        <ele>915.84</ele>
        <time>2022-03-19T14:00:40.556Z</time>
      </trkpt>
      <trkpt lat="48.02038" lon="6.96769">
        <ele>917.06</ele>
        <time>2022-03-19T14:00:51.000Z</time>
      </trkpt>
      <trkpt lat="48.02045" lon="6.96776">
        <ele>918.28</ele>
        <time>2022-03-19T14:01:01.000Z</time>
      </trkpt>
      <trkpt lat="48.0205" lon="6.96785">
        <ele>919.39</ele>
        <time>2022-03-19T14:01:10.591Z</time>
      </trkpt>
      <trkpt lat="48.02053" lon="6.96794">
        <ele>920.22</ele>
        <time>2022-03-19T14:01:21.000Z</time>
      </trkpt>
      <trkpt lat="48.02057" lon="6.96802">
        <ele>920.87</ele>
        <time>2022-03-19T14:01:31.000Z</time>
      </trkpt>
      <trkpt lat="48.02061" lon="6.96808">
        <ele>921.28</ele>
        <time>2022-03-19T14:01:42.000Z</time>
      </trkpt>
      <trkpt lat="48.02065" lon="6.96811">
        <ele>919.79</ele>
        <time>2022-03-19T14:01:51.482Z</time>
      </trkpt>
      <trkpt lat="48.02069" lon="6.96816">
        <ele>919.24</ele>
        <time>2022-03-19T14:02:01.000Z</time>
      </trkpt>
      <trkpt lat="48.02056" lon="6.96835">
        <ele>917.63</ele>
        <time>2022-03-19T14:02:10.619Z</time>
      </trkpt>
      <trkpt lat="48.0204" lon="6.96854">
        <ele>916.45</ele>
        <time>2022-03-19T14:02:20.000Z</time>
      </trkpt>
      <trkpt lat="48.02028" lon="6.96865">
        <ele>915.94</ele>
        <time>2022-03-19T14:02:30.000Z</time>
      </trkpt>
      <trkpt lat="48.02024" lon="6.96871">
        <ele>915.91</ele>
        <time>2022-03-19T14:02:40.000Z</time>
      </trkpt>
      <trkpt lat="48.0202" lon="6.96874">
        <ele>914.91</ele>
        <time>2022-03-19T14:02:49.519Z</time>
      </trkpt>
      <trkpt lat="48.02016" lon="6.96888">
        <ele>914.16</ele>
        <time>2022-03-19T14:02:59.000Z</time>
      </trkpt>
      <trkpt lat="48.02014" lon="6.96906">
        <ele>913.88</ele>
        <time>2022-03-19T14:03:09.000Z</time>
      </trkpt>
      <trkpt lat="48.02007" lon="6.96919">
        <ele>914.41</ele>
        <time>2022-03-19T14:03:18.457Z</time>
      </trkpt>
      <trkpt lat="48.02003" lon="6.96933">
        <ele>915.13</ele>
        <time>2022-03-19T14:03:28.000Z</time>
      </trkpt>
      <trkpt lat="48.02002" lon="6.96949">
        <ele>916.55</ele>
        <time>2022-03-19T14:03:38.000Z</time>
      </trkpt>
      <trkpt lat="48.02004" lon="6.96962">
        <ele>918.05</ele>
        <time>2022-03-19T14:03:47.833Z</time>
      </trkpt>
      <trkpt lat="48.02003" lon="6.96976">
        <ele>919.17</ele>
        <time>2022-03-19T14:03:58.000Z</time>
      </trkpt>
      <trkpt lat="48.02005" lon="6.96986">
        <ele>920.29</ele>
        <time>2022-03-19T14:04:09.000Z</time>
      </trkpt>
      <trkpt lat="48.01998" lon="6.97">
        <ele>921.39</ele>
        <time>2022-03-19T14:04:19.000Z</time>
      </trkpt>
      <trkpt lat="48.0199" lon="6.97012">
        <ele>922.34</ele>
        <time>2022-03-19T14:04:29.000Z</time>
      </trkpt>
      <trkpt lat="48.01986" lon="6.97017">
        <ele>923.72</ele>
        <time>2022-03-19T14:04:41.000Z</time>
      </trkpt>
      <trkpt lat="48.01985" lon="6.97018">
        <ele>925.19</ele>
        <time>2022-03-19T14:04:53.000Z</time>
      </trkpt>
      <trkpt lat="48.01982" lon="6.97016">
        <ele>926.39</ele>
        <time>2022-03-19T14:05:02.431Z</time>
      </trkpt>
      <trkpt lat="48.01976" lon="6.97013">
        <ele>927.43</ele>
        <time>2022-03-19T14:05:12.000Z</time>
      </trkpt>
      <trkpt lat="48.01965" lon="6.97012">
        <ele>928.39</ele>
        <time>2022-03-19T14:05:22.000Z</time>
      </trkpt>
      <trkpt lat="48.01958" lon="6.97015">
        <ele>929.28</ele>
        <time>2022-03-19T14:05:31.432Z</time>
      </trkpt>
      <trkpt lat="48.01953" lon="6.97011">
        <ele>930.14</ele>
        <time>2022-03-19T14:05:40.651Z</time>
      </trkpt>
      <trkpt lat="48.01945" lon="6.9701">
        <ele>930.72</ele>
        <time>2022-03-19T14:05:49.864Z</time>
      </trkpt>
      <trkpt lat="48.0194" lon="6.97003">
        <ele>931.19</ele>
        <time>2022-03-19T14:05:59.000Z</time>
      </trkpt>
      <trkpt lat="48.01934" lon="6.96997">
        <ele>931.8</ele>
        <time>2022-03-19T14:06:08.632Z</time>
      </trkpt>
      <trkpt lat="48.01925" lon="6.96998">
        <ele>932.19</ele>
        <time>2022-03-19T14:06:18.000Z</time>
      </trkpt>
      <trkpt lat="48.01916" lon="6.97007">
        <ele>932.61</ele>
        <time>2022-03-19T14:06:27.397Z</time>
      </trkpt>
      <trkpt lat="48.0191" lon="6.97013">
        <ele>932.93</ele>
        <time>2022-03-19T14:06:36.823Z</time>
      </trkpt>
      <trkpt lat="48.01906" lon="6.97017">
        <ele>933.01</ele>
        <time>2022-03-19T14:06:46.000Z</time>
      </trkpt>
      <trkpt lat="48.01919" lon="6.97072">
        <ele>933.43</ele>
        <time>2022-03-19T14:06:56.000Z</time>
      </trkpt>
      <trkpt lat="48.01947" lon="6.97173">
        <ele>936.15</ele>
        <time>2022-03-19T14:07:06.000Z</time>
      </trkpt>
      <trkpt lat="48.01955" lon="6.97193">
        <ele>940.84</ele>
        <time>2022-03-19T14:07:16.000Z</time>
      </trkpt>
      <trkpt lat="48.01959" lon="6.9721">
        <ele>945.62</ele>
        <time>2022-03-19T14:07:26.000Z</time>
      </trkpt>
      <trkpt lat="48.01959" lon="6.9722">
        <ele>949.33</ele>
        <time>2022-03-19T14:07:36.000Z</time>
      </trkpt>
      <trkpt lat="48.01958" lon="6.97224">
        <ele>952.72</ele>
        <time>2022-03-19T14:07:46.000Z</time>
      </trkpt>
      <trkpt lat="48.01965" lon="6.97231">
        <ele>955.56</ele>
        <time>2022-03-19T14:07:56.000Z</time>
      </trkpt>
      <trkpt lat="48.01971" lon="6.97243">
        <ele>958.54</ele>
        <time>2022-03-19T14:08:05.894Z</time>
      </trkpt>
      <trkpt lat="48.01973" lon="6.97256">
        <ele>960.74</ele>
        <time>2022-03-19T14:08:15.000Z</time>
      </trkpt>
      <trkpt lat="48.01973" lon="6.9727">
        <ele>962.82</ele>
        <time>2022-03-19T14:08:24.162Z</time>
      </trkpt>
      <trkpt lat="48.01974" lon="6.97281">
        <ele>964.16</ele>
        <time>2022-03-19T14:08:33.317Z</time>
      </trkpt>
      <trkpt lat="48.01971" lon="6.97296">
        <ele>965.28</ele>
        <time>2022-03-19T14:08:43.000Z</time>
      </trkpt>
      <trkpt lat="48.01971" lon="6.97312">
        <ele>966.71</ele>
        <time>2022-03-19T14:08:52.441Z</time>
      </trkpt>
      <trkpt lat="48.0197" lon="6.9733">
        <ele>967.68</ele>
        <time>2022-03-19T14:09:03.000Z</time>
      </trkpt>
      <trkpt lat="48.01966" lon="6.97345">
        <ele>968.55</ele>
        <time>2022-03-19T14:09:12.273Z</time>
      </trkpt>
      <trkpt lat="48.01966" lon="6.97361">
        <ele>969.48</ele>
        <time>2022-03-19T14:09:21.512Z</time>
      </trkpt>
      <trkpt lat="48.01964" lon="6.97377">
        <ele>970.81</ele>
        <time>2022-03-19T14:09:30.791Z</time>
      </trkpt>
      <trkpt lat="48.0196" lon="6.97392">
        <ele>971.68</ele>
        <time>2022-03-19T14:09:41.000Z</time>
      </trkpt>
      <trkpt lat="48.01958" lon="6.97403">
        <ele>972.85</ele>
        <time>2022-03-19T14:09:50.259Z</time>
      </trkpt>
      <trkpt lat="48.01955" lon="6.97415">
        <ele>974.59</ele>
        <time>2022-03-19T14:10:00.000Z</time>
      </trkpt>
      <trkpt lat="48.0195" lon="6.97428">
        <ele>975.54</ele>
        <time>2022-03-19T14:10:10.000Z</time>
      </trkpt>
      <trkpt lat="48.01949" lon="6.97437">
        <ele>976.43</ele>
        <time>2022-03-19T14:10:20.000Z</time>
      </trkpt>
      <trkpt lat="48.01949" lon="6.97439">
        <ele>977.24</ele>
        <time>2022-03-19T14:10:30.000Z</time>
      </trkpt>
      <trkpt lat="48.01949" lon="6.97437">
        <ele>979.53</ele>
        <time>2022-03-19T14:11:05.000Z</time>
      </trkpt>
      <trkpt lat="48.01943" lon="6.97438">
        <ele>980.13</ele>
        <time>2022-03-19T14:11:14.751Z</time>
      </trkpt>
      <trkpt lat="48.01933" lon="6.97448">
        <ele>980.52</ele>
        <time>2022-03-19T14:11:24.000Z</time>
      </trkpt>
      <trkpt lat="48.01923" lon="6.97443">
        <ele>980.59</ele>
        <time>2022-03-19T14:11:33.293Z</time>
      </trkpt>
      <trkpt lat="48.01918" lon="6.97435">
        <ele>980.52</ele>
        <time>2022-03-19T14:11:42.693Z</time>
      </trkpt>
      <trkpt lat="48.01917" lon="6.97419">
        <ele>980.39</ele>
        <time>2022-03-19T14:11:53.000Z</time>
      </trkpt>
      <trkpt lat="48.01911" lon="6.97413">
        <ele>979.77</ele>
        <time>2022-03-19T14:12:02.416Z</time>
      </trkpt>
      <trkpt lat="48.01902" lon="6.9743">
        <ele>977.95</ele>
        <time>2022-03-19T14:12:11.836Z</time>
      </trkpt>
      <trkpt lat="48.01898" lon="6.97452">
        <ele>974.44</ele>
        <time>2022-03-19T14:12:21.198Z</time>
      </trkpt>
      <trkpt lat="48.01893" lon="6.97462">
        <ele>971.45</ele>
        <time>2022-03-19T14:12:32.000Z</time>
      </trkpt>
      <trkpt lat="48.01883" lon="6.97471">
        <ele>969.61</ele>
        <time>2022-03-19T14:12:42.000Z</time>
      </trkpt>
      <trkpt lat="48.01872" lon="6.97488">
        <ele>967.93</ele>
        <time>2022-03-19T14:12:52.000Z</time>
      </trkpt>
      <trkpt lat="48.01867" lon="6.97503">
        <ele>967.75</ele>
        <time>2022-03-19T14:13:01.903Z</time>
      </trkpt>
      <trkpt lat="48.01867" lon="6.97505">
        <ele>967.98</ele>
        <time>2022-03-19T14:13:11.518Z</time>
      </trkpt>
      <trkpt lat="48.01866" lon="6.97508">
        <ele>968.81</ele>
        <time>2022-03-19T14:13:23.000Z</time>
      </trkpt>
      <trkpt lat="48.01866" lon="6.97517">
        <ele>969.84</ele>
        <time>2022-03-19T14:13:33.000Z</time>
      </trkpt>
      <trkpt lat="48.01867" lon="6.97525">
        <ele>970.79</ele>
        <time>2022-03-19T14:13:43.000Z</time>
      </trkpt>
      <trkpt lat="48.01867" lon="6.97536">
        <ele>972.17</ele>
        <time>2022-03-19T14:13:53.000Z</time>
      </trkpt>
      <trkpt lat="48.01862" lon="6.97538">
        <ele>973.79</ele>
        <time>2022-03-19T14:14:02.739Z</time>
      </trkpt>
      <trkpt lat="48.01861" lon="6.9754">
        <ele>974.94</ele>
        <time>2022-03-19T14:14:12.000Z</time>
      </trkpt>
      <trkpt lat="48.01863" lon="6.97538">
        <ele>976</ele>
        <time>2022-03-19T14:14:22.000Z</time>
      </trkpt>
      <trkpt lat="48.01861" lon="6.97541">
        <ele>977.06</ele>
        <time>2022-03-19T14:14:32.000Z</time>
      </trkpt>
      <trkpt lat="48.01859" lon="6.97541">
        <ele>978.85</ele>
        <time>2022-03-19T14:14:47.000Z</time>
      </trkpt>
      <trkpt lat="48.01857" lon="6.9754">
        <ele>979.75</ele>
        <time>2022-03-19T14:14:57.000Z</time>
      </trkpt>
      <trkpt lat="48.01858" lon="6.97539">
        <ele>980.58</ele>
        <time>2022-03-19T14:15:07.000Z</time>
      </trkpt>
      <trkpt lat="48.01858" lon="6.9754">
        <ele>981.65</ele>
        <time>2022-03-19T14:15:25.000Z</time>
      </trkpt>
      <trkpt lat="48.01858" lon="6.97541">
        <ele>982.69</ele>
        <time>2022-03-19T14:15:45.000Z</time>
      </trkpt>
      <trkpt lat="48.01859" lon="6.97539">
        <ele>983.07</ele>
        <time>2022-03-19T14:15:55.000Z</time>
      </trkpt>
      <trkpt lat="48.01861" lon="6.97539">
        <ele>984.07</ele>
        <time>2022-03-19T14:16:05.000Z</time>
      </trkpt>
      <trkpt lat="48.01864" lon="6.9754">
        <ele>984.75</ele>
        <time>2022-03-19T14:16:15.000Z</time>
      </trkpt>
      <trkpt lat="48.01861" lon="6.97539">
        <ele>984.98</ele>
        <time>2022-03-19T14:16:26.000Z</time>
      </trkpt>
      <trkpt lat="48.0186" lon="6.97537">
        <ele>985.04</ele>
        <time>2022-03-19T14:16:36.000Z</time>
      </trkpt>
      <trkpt lat="48.01863" lon="6.97532">
        <ele>985.35</ele>
        <time>2022-03-19T14:16:46.000Z</time>
      </trkpt>
      <trkpt lat="48.01865" lon="6.97534">
        <ele>985.88</ele>
        <time>2022-03-19T14:16:56.000Z</time>
      </trkpt>
      <trkpt lat="48.01865" lon="6.97537">
        <ele>986.27</ele>
        <time>2022-03-19T14:17:06.000Z</time>
      </trkpt>
      <trkpt lat="48.01865" lon="6.97535">
        <ele>985.94</ele>
        <time>2022-03-19T14:18:33.000Z</time>
      </trkpt>
      <trkpt lat="48.01866" lon="6.97536">
        <ele>985.89</ele>
        <time>2022-03-19T14:18:43.410Z</time>
      </trkpt>
      <trkpt lat="48.01867" lon="6.97537">
        <ele>985.86</ele>
        <time>2022-03-19T14:18:53.000Z</time>
      </trkpt>
      <trkpt lat="48.01868" lon="6.97538">
        <ele>986.14</ele>
        <time>2022-03-19T14:19:14.000Z</time>
      </trkpt>
      <trkpt lat="48.01864" lon="6.97541">
        <ele>986.46</ele>
        <time>2022-03-19T14:19:24.000Z</time>
      </trkpt>
      <trkpt lat="48.01863" lon="6.97543">
        <ele>986.76</ele>
        <time>2022-03-19T14:19:34.000Z</time>
      </trkpt>
      <trkpt lat="48.01864" lon="6.97543">
        <ele>987.09</ele>
        <time>2022-03-19T14:19:44.000Z</time>
      </trkpt>
      <trkpt lat="48.01863" lon="6.97546">
        <ele>987.44</ele>
        <time>2022-03-19T14:19:54.000Z</time>
      </trkpt>
      <trkpt lat="48.01863" lon="6.97547">
        <ele>989.53</ele>
        <time>2022-03-19T14:20:47.000Z</time>
      </trkpt>
      <trkpt lat="48.01864" lon="6.97549">
        <ele>990.05</ele>
        <time>2022-03-19T14:21:07.000Z</time>
      </trkpt>
      <trkpt lat="48.01864" lon="6.97546">
        <ele>990.49</ele>
        <time>2022-03-19T14:21:22.000Z</time>
      </trkpt>
      <trkpt lat="48.01865" lon="6.97541">
        <ele>990.65</ele>
        <time>2022-03-19T14:21:32.000Z</time>
      </trkpt>
      <trkpt lat="48.01872" lon="6.97541">
        <ele>990.66</ele>
        <time>2022-03-19T14:21:41.494Z</time>
      </trkpt>
      <trkpt lat="48.01871" lon="6.97543">
        <ele>990.77</ele>
        <time>2022-03-19T14:21:52.000Z</time>
      </trkpt>
      <trkpt lat="48.0187" lon="6.97544">
        <ele>990.88</ele>
        <time>2022-03-19T14:22:06.000Z</time>
      </trkpt>
      <trkpt lat="48.01869" lon="6.97545">
        <ele>991</ele>
        <time>2022-03-19T14:22:16.000Z</time>
      </trkpt>
      <trkpt lat="48.01867" lon="6.97543">
        <ele>991.11</ele>
        <time>2022-03-19T14:22:25.574Z</time>
      </trkpt>
      <trkpt lat="48.01867" lon="6.9753">
        <ele>991.22</ele>
        <time>2022-03-19T14:22:36.000Z</time>
      </trkpt>
      <trkpt lat="48.01868" lon="6.97524">
        <ele>991.37</ele>
        <time>2022-03-19T14:22:45.831Z</time>
      </trkpt>
      <trkpt lat="48.01865" lon="6.97521">
        <ele>991.61</ele>
        <time>2022-03-19T14:22:56.000Z</time>
      </trkpt>
      <trkpt lat="48.0186" lon="6.97506">
        <ele>991.89</ele>
        <time>2022-03-19T14:23:06.000Z</time>
      </trkpt>
      <trkpt lat="48.01855" lon="6.97493">
        <ele>992.14</ele>
        <time>2022-03-19T14:23:15.133Z</time>
      </trkpt>
      <trkpt lat="48.01848" lon="6.97483">
        <ele>992.3</ele>
        <time>2022-03-19T14:23:25.000Z</time>
      </trkpt>
      <trkpt lat="48.01839" lon="6.97501">
        <ele>992.43</ele>
        <time>2022-03-19T14:23:34.833Z</time>
      </trkpt>
      <trkpt lat="48.0184" lon="6.97527">
        <ele>992.53</ele>
        <time>2022-03-19T14:23:44.469Z</time>
      </trkpt>
      <trkpt lat="48.01831" lon="6.97566">
        <ele>992.92</ele>
        <time>2022-03-19T14:23:55.000Z</time>
      </trkpt>
      <trkpt lat="48.01832" lon="6.97592">
        <ele>993.31</ele>
        <time>2022-03-19T14:24:04.393Z</time>
      </trkpt>
      <trkpt lat="48.01827" lon="6.97605">
        <ele>993.71</ele>
        <time>2022-03-19T14:24:14.000Z</time>
      </trkpt>
      <trkpt lat="48.01817" lon="6.97615">
        <ele>994.1</ele>
        <time>2022-03-19T14:24:23.138Z</time>
      </trkpt>
      <trkpt lat="48.01808" lon="6.9762">
        <ele>994.48</ele>
        <time>2022-03-19T14:24:33.000Z</time>
      </trkpt>
      <trkpt lat="48.018" lon="6.97615">
        <ele>994.9</ele>
        <time>2022-03-19T14:24:42.530Z</time>
      </trkpt>
      <trkpt lat="48.01794" lon="6.97614">
        <ele>995.17</ele>
        <time>2022-03-19T14:24:52.000Z</time>
      </trkpt>
      <trkpt lat="48.01797" lon="6.97612">
        <ele>995.45</ele>
        <time>2022-03-19T14:25:02.000Z</time>
      </trkpt>
      <trkpt lat="48.01793" lon="6.97616">
        <ele>996.04</ele>
        <time>2022-03-19T14:25:11.314Z</time>
      </trkpt>
      <trkpt lat="48.01788" lon="6.97615">
        <ele>996.49</ele>
        <time>2022-03-19T14:25:21.000Z</time>
      </trkpt>
      <trkpt lat="48.01782" lon="6.97633">
        <ele>997.2</ele>
        <time>2022-03-19T14:25:30.559Z</time>
      </trkpt>
      <trkpt lat="48.01805" lon="6.978">
        <ele>997.61</ele>
        <time>2022-03-19T14:25:41.000Z</time>
      </trkpt>
      <trkpt lat="48.01797" lon="6.97813">
        <ele>997.88</ele>
        <time>2022-03-19T14:25:51.000Z</time>
      </trkpt>
      <trkpt lat="48.01789" lon="6.97834">
        <ele>997.77</ele>
        <time>2022-03-19T14:26:01.000Z</time>
      </trkpt>
      <trkpt lat="48.01779" lon="6.97853">
        <ele>997.06</ele>
        <time>2022-03-19T14:26:10.412Z</time>
      </trkpt>
      <trkpt lat="48.01768" lon="6.97865">
        <ele>996.36</ele>
        <time>2022-03-19T14:26:21.000Z</time>
      </trkpt>
      <trkpt lat="48.01756" lon="6.97862">
        <ele>995.61</ele>
        <time>2022-03-19T14:26:30.810Z</time>
      </trkpt>
      <trkpt lat="48.01744" lon="6.97853">
        <ele>995.12</ele>
        <time>2022-03-19T14:26:41.000Z</time>
      </trkpt>
      <trkpt lat="48.01747" lon="6.97887">
        <ele>995.02</ele>
        <time>2022-03-19T14:26:50.754Z</time>
      </trkpt>
      <trkpt lat="48.01747" lon="6.97906">
        <ele>995.01</ele>
        <time>2022-03-19T14:27:00.000Z</time>
      </trkpt>
      <trkpt lat="48.01752" lon="6.97927">
        <ele>994.88</ele>
        <time>2022-03-19T14:27:10.000Z</time>
      </trkpt>
      <trkpt lat="48.01745" lon="6.97934">
        <ele>994.88</ele>
        <time>2022-03-19T14:27:20.000Z</time>
      </trkpt>
      <trkpt lat="48.01731" lon="6.9792">
        <ele>994.93</ele>
        <time>2022-03-19T14:27:29.472Z</time>
      </trkpt>
      <trkpt lat="48.01724" lon="6.97906">
        <ele>994.93</ele>
        <time>2022-03-19T14:27:39.000Z</time>
      </trkpt>
      <trkpt lat="48.01719" lon="6.97915">
        <ele>994.47</ele>
        <time>2022-03-19T14:27:49.000Z</time>
      </trkpt>
      <trkpt lat="48.0171" lon="6.97914">
        <ele>993.74</ele>
        <time>2022-03-19T14:27:59.000Z</time>
      </trkpt>
      <trkpt lat="48.017" lon="6.9794">
        <ele>993.38</ele>
        <time>2022-03-19T14:28:09.000Z</time>
      </trkpt>
      <trkpt lat="48.0169" lon="6.97953">
        <ele>993.93</ele>
        <time>2022-03-19T14:28:20.000Z</time>
      </trkpt>
      <trkpt lat="48.01679" lon="6.97953">
        <ele>994.86</ele>
        <time>2022-03-19T14:28:29.535Z</time>
      </trkpt>
      <trkpt lat="48.01673" lon="6.97944">
        <ele>995.99</ele>
        <time>2022-03-19T14:28:39.000Z</time>
      </trkpt>
      <trkpt lat="48.01669" lon="6.97923">
        <ele>996.74</ele>
        <time>2022-03-19T14:28:48.256Z</time>
      </trkpt>
      <trkpt lat="48.01663" lon="6.97921">
        <ele>997.39</ele>
        <time>2022-03-19T14:28:58.000Z</time>
      </trkpt>
      <trkpt lat="48.01655" lon="6.97925">
        <ele>997.75</ele>
        <time>2022-03-19T14:29:08.000Z</time>
      </trkpt>
      <trkpt lat="48.01655" lon="6.97929">
        <ele>998.04</ele>
        <time>2022-03-19T14:29:18.000Z</time>
      </trkpt>
      <trkpt lat="48.01652" lon="6.97933">
        <ele>998.26</ele>
        <time>2022-03-19T14:29:28.000Z</time>
      </trkpt>
      <trkpt lat="48.01654" lon="6.97941">
        <ele>998.15</ele>
        <time>2022-03-19T14:29:38.000Z</time>
      </trkpt>
      <trkpt lat="48.01654" lon="6.97945">
        <ele>997.46</ele>
        <time>2022-03-19T14:29:47.468Z</time>
      </trkpt>
      <trkpt lat="48.01652" lon="6.97946">
        <ele>997.29</ele>
        <time>2022-03-19T14:29:57.000Z</time>
      </trkpt>
      <trkpt lat="48.01643" lon="6.97948">
        <ele>997.65</ele>
        <time>2022-03-19T14:30:08.000Z</time>
      </trkpt>
      <trkpt lat="48.01632" lon="6.97966">
        <ele>997.54</ele>
        <time>2022-03-19T14:30:19.000Z</time>
      </trkpt>
      <trkpt lat="48.01621" lon="6.97982">
        <ele>997.65</ele>
        <time>2022-03-19T14:30:29.000Z</time>
      </trkpt>
      <trkpt lat="48.01616" lon="6.97982">
        <ele>998.46</ele>
        <time>2022-03-19T14:30:38.312Z</time>
      </trkpt>
      <trkpt lat="48.01612" lon="6.97988">
        <ele>999.04</ele>
        <time>2022-03-19T14:30:48.000Z</time>
      </trkpt>
      <trkpt lat="48.01602" lon="6.98009">
        <ele>998.82</ele>
        <time>2022-03-19T14:30:57.418Z</time>
      </trkpt>
      <trkpt lat="48.01601" lon="6.97999">
        <ele>999.35</ele>
        <time>2022-03-19T14:31:08.000Z</time>
      </trkpt>
      <trkpt lat="48.01595" lon="6.97992">
        <ele>1000.26</ele>
        <time>2022-03-19T14:31:17.340Z</time>
      </trkpt>
      <trkpt lat="48.01589" lon="6.97985">
        <ele>1001.31</ele>
        <time>2022-03-19T14:31:28.000Z</time>
      </trkpt>
      <trkpt lat="48.01585" lon="6.97979">
        <ele>1002.31</ele>
        <time>2022-03-19T14:31:37.661Z</time>
      </trkpt>
      <trkpt lat="48.01584" lon="6.97973">
        <ele>1002.65</ele>
        <time>2022-03-19T14:31:48.000Z</time>
      </trkpt>
      <trkpt lat="48.01585" lon="6.97967">
        <ele>1002.3</ele>
        <time>2022-03-19T14:31:57.469Z</time>
      </trkpt>
      <trkpt lat="48.01582" lon="6.97961">
        <ele>1001.85</ele>
        <time>2022-03-19T14:32:06.732Z</time>
      </trkpt>
      <trkpt lat="48.01583" lon="6.97967">
        <ele>1001.56</ele>
        <time>2022-03-19T14:32:17.000Z</time>
      </trkpt>
      <trkpt lat="48.01582" lon="6.97966">
        <ele>1001.49</ele>
        <time>2022-03-19T14:32:27.000Z</time>
      </trkpt>
      <trkpt lat="48.0158" lon="6.97962">
        <ele>1001.56</ele>
        <time>2022-03-19T14:32:37.000Z</time>
      </trkpt>
      <trkpt lat="48.01583" lon="6.97962">
        <ele>1001.7</ele>
        <time>2022-03-19T14:32:47.000Z</time>
      </trkpt>
      <trkpt lat="48.0158" lon="6.97957">
        <ele>1001.86</ele>
        <time>2022-03-19T14:32:56.715Z</time>
      </trkpt>
      <trkpt lat="48.01574" lon="6.97958">
        <ele>1002.08</ele>
        <time>2022-03-19T14:33:06.000Z</time>
      </trkpt>
      <trkpt lat="48.01565" lon="6.97955">
        <ele>1003.34</ele>
        <time>2022-03-19T14:33:16.000Z</time>
      </trkpt>
      <trkpt lat="48.01551" lon="6.97955">
        <ele>1005.46</ele>
        <time>2022-03-19T14:33:25.230Z</time>
      </trkpt>
      <trkpt lat="48.01541" lon="6.97948">
        <ele>1006.81</ele>
        <time>2022-03-19T14:33:35.000Z</time>
      </trkpt>
      <trkpt lat="48.01531" lon="6.97945">
        <ele>1008.11</ele>
        <time>2022-03-19T14:33:45.000Z</time>
      </trkpt>
      <trkpt lat="48.01523" lon="6.97947">
        <ele>1009.4</ele>
        <time>2022-03-19T14:33:54.258Z</time>
      </trkpt>
      <trkpt lat="48.01516" lon="6.97943">
        <ele>1010.32</ele>
        <time>2022-03-19T14:34:05.000Z</time>
      </trkpt>
      <trkpt lat="48.01509" lon="6.97935">
        <ele>1011.34</ele>
        <time>2022-03-19T14:34:14.840Z</time>
      </trkpt>
      <trkpt lat="48.01507" lon="6.97932">
        <ele>1011.98</ele>
        <time>2022-03-19T14:34:25.000Z</time>
      </trkpt>
      <trkpt lat="48.01504" lon="6.97933">
        <ele>1005.22</ele>
        <time>2022-03-19T14:34:35.000Z</time>
      </trkpt>
      <trkpt lat="48.01499" lon="6.97931">
        <ele>994.55</ele>
        <time>2022-03-19T14:34:45.000Z</time>
      </trkpt>
      <trkpt lat="48.01498" lon="6.97928">
        <ele>984.88</ele>
        <time>2022-03-19T14:34:55.000Z</time>
      </trkpt>
      <trkpt lat="48.01498" lon="6.97927">
        <ele>978.53</ele>
        <time>2022-03-19T14:35:04.459Z</time>
      </trkpt>
      <trkpt lat="48.015" lon="6.97927">
        <ele>978.42</ele>
        <time>2022-03-19T14:35:14.000Z</time>
      </trkpt>
      <trkpt lat="48.01495" lon="6.97929">
        <ele>981.81</ele>
        <time>2022-03-19T14:35:23.577Z</time>
      </trkpt>
      <trkpt lat="48.01492" lon="6.97924">
        <ele>983.87</ele>
        <time>2022-03-19T14:35:33.000Z</time>
      </trkpt>
      <trkpt lat="48.0149" lon="6.97923">
        <ele>986.61</ele>
        <time>2022-03-19T14:35:44.000Z</time>
      </trkpt>
      <trkpt lat="48.01484" lon="6.97919">
        <ele>989.74</ele>
        <time>2022-03-19T14:35:53.149Z</time>
      </trkpt>
      <trkpt lat="48.01479" lon="6.97914">
        <ele>992.63</ele>
        <time>2022-03-19T14:36:03.000Z</time>
      </trkpt>
      <trkpt lat="48.01474" lon="6.97908">
        <ele>995.02</ele>
        <time>2022-03-19T14:36:13.000Z</time>
      </trkpt>
      <trkpt lat="48.01465" lon="6.97914">
        <ele>995.87</ele>
        <time>2022-03-19T14:36:22.421Z</time>
      </trkpt>
      <trkpt lat="48.01444" lon="6.97915">
        <ele>995.69</ele>
        <time>2022-03-19T14:36:32.000Z</time>
      </trkpt>
      <trkpt lat="48.01435" lon="6.97911">
        <ele>993.67</ele>
        <time>2022-03-19T14:36:42.000Z</time>
      </trkpt>
      <trkpt lat="48.0142" lon="6.97911">
        <ele>990.46</ele>
        <time>2022-03-19T14:36:51.430Z</time>
      </trkpt>
      <trkpt lat="48.0141" lon="6.97911">
        <ele>991.81</ele>
        <time>2022-03-19T14:37:00.492Z</time>
      </trkpt>
      <trkpt lat="48.01406" lon="6.97907">
        <ele>993.62</ele>
        <time>2022-03-19T14:37:10.000Z</time>
      </trkpt>
      <trkpt lat="48.014" lon="6.979">
        <ele>995.99</ele>
        <time>2022-03-19T14:37:19.877Z</time>
      </trkpt>
      <trkpt lat="48.01398" lon="6.97896">
        <ele>997.57</ele>
        <time>2022-03-19T14:37:29.000Z</time>
      </trkpt>
      <trkpt lat="48.01397" lon="6.97894">
        <ele>1001.46</ele>
        <time>2022-03-19T14:37:43.000Z</time>
      </trkpt>
      <trkpt lat="48.01395" lon="6.97889">
        <ele>1002.86</ele>
        <time>2022-03-19T14:37:53.000Z</time>
      </trkpt>
      <trkpt lat="48.01396" lon="6.97888">
        <ele>1003.69</ele>
        <time>2022-03-19T14:38:02.421Z</time>
      </trkpt>
      <trkpt lat="48.014" lon="6.97886">
        <ele>1005.26</ele>
        <time>2022-03-19T14:38:12.000Z</time>
      </trkpt>
      <trkpt lat="48.01396" lon="6.97879">
        <ele>1006.64</ele>
        <time>2022-03-19T14:38:21.290Z</time>
      </trkpt>
      <trkpt lat="48.0139" lon="6.97869">
        <ele>1007.41</ele>
        <time>2022-03-19T14:38:30.560Z</time>
      </trkpt>
      <trkpt lat="48.01384" lon="6.97858">
        <ele>1008.27</ele>
        <time>2022-03-19T14:38:39.792Z</time>
      </trkpt>
      <trkpt lat="48.01386" lon="6.97856">
        <ele>1009.15</ele>
        <time>2022-03-19T14:38:49.255Z</time>
      </trkpt>
      <trkpt lat="48.01383" lon="6.9786">
        <ele>1010.12</ele>
        <time>2022-03-19T14:38:59.000Z</time>
      </trkpt>
      <trkpt lat="48.01358" lon="6.97846">
        <ele>1011.97</ele>
        <time>2022-03-19T14:39:09.000Z</time>
      </trkpt>
      <trkpt lat="48.0136" lon="6.97835">
        <ele>1014.09</ele>
        <time>2022-03-19T14:39:19.000Z</time>
      </trkpt>
      <trkpt lat="48.01362" lon="6.97822">
        <ele>1014.78</ele>
        <time>2022-03-19T14:39:28.617Z</time>
      </trkpt>
      <trkpt lat="48.01367" lon="6.97816">
        <ele>1015.03</ele>
        <time>2022-03-19T14:39:39.000Z</time>
      </trkpt>
      <trkpt lat="48.01369" lon="6.9781">
        <ele>1015.26</ele>
        <time>2022-03-19T14:39:49.000Z</time>
      </trkpt>
      <trkpt lat="48.01367" lon="6.97805">
        <ele>1013.35</ele>
        <time>2022-03-19T14:39:58.352Z</time>
      </trkpt>
      <trkpt lat="48.01364" lon="6.97798">
        <ele>1011.15</ele>
        <time>2022-03-19T14:40:08.000Z</time>
      </trkpt>
      <trkpt lat="48.01362" lon="6.9779">
        <ele>1011.63</ele>
        <time>2022-03-19T14:40:18.000Z</time>
      </trkpt>
      <trkpt lat="48.01359" lon="6.97781">
        <ele>1010.62</ele>
        <time>2022-03-19T14:40:27.315Z</time>
      </trkpt>
      <trkpt lat="48.01356" lon="6.97776">
        <ele>1009.44</ele>
        <time>2022-03-19T14:40:37.000Z</time>
      </trkpt>
      <trkpt lat="48.01349" lon="6.97775">
        <ele>1007.77</ele>
        <time>2022-03-19T14:40:46.591Z</time>
      </trkpt>
      <trkpt lat="48.01342" lon="6.97772">
        <ele>1006.51</ele>
        <time>2022-03-19T14:40:56.329Z</time>
      </trkpt>
      <trkpt lat="48.01337" lon="6.97767">
        <ele>1006.99</ele>
        <time>2022-03-19T14:41:05.360Z</time>
      </trkpt>
      <trkpt lat="48.01332" lon="6.97761">
        <ele>1008.19</ele>
        <time>2022-03-19T14:41:14.833Z</time>
      </trkpt>
      <trkpt lat="48.01327" lon="6.97755">
        <ele>1010.79</ele>
        <time>2022-03-19T14:41:25.000Z</time>
      </trkpt>
      <trkpt lat="48.01322" lon="6.97747">
        <ele>1013</ele>
        <time>2022-03-19T14:41:34.414Z</time>
      </trkpt>
      <trkpt lat="48.01321" lon="6.97743">
        <ele>1014.29</ele>
        <time>2022-03-19T14:41:46.049Z</time>
      </trkpt>
      <trkpt lat="48.01318" lon="6.97741">
        <ele>1015.84</ele>
        <time>2022-03-19T14:41:56.000Z</time>
      </trkpt>
      <trkpt lat="48.01312" lon="6.97734">
        <ele>1019.24</ele>
        <time>2022-03-19T14:42:06.000Z</time>
      </trkpt>
      <trkpt lat="48.01307" lon="6.97723">
        <ele>1022.6</ele>
        <time>2022-03-19T14:42:16.000Z</time>
      </trkpt>
      <trkpt lat="48.01306" lon="6.97716">
        <ele>1025.99</ele>
        <time>2022-03-19T14:42:25.690Z</time>
      </trkpt>
      <trkpt lat="48.01305" lon="6.97712">
        <ele>1028.59</ele>
        <time>2022-03-19T14:42:37.000Z</time>
      </trkpt>
      <trkpt lat="48.01303" lon="6.97708">
        <ele>1030.49</ele>
        <time>2022-03-19T14:42:47.000Z</time>
      </trkpt>
      <trkpt lat="48.013" lon="6.97699">
        <ele>1032.14</ele>
        <time>2022-03-19T14:42:57.000Z</time>
      </trkpt>
      <trkpt lat="48.01298" lon="6.97693">
        <ele>1034.29</ele>
        <time>2022-03-19T14:43:06.629Z</time>
      </trkpt>
      <trkpt lat="48.01299" lon="6.97692">
        <ele>1035.62</ele>
        <time>2022-03-19T14:43:16.000Z</time>
      </trkpt>
      <trkpt lat="48.01293" lon="6.97689">
        <ele>1037.46</ele>
        <time>2022-03-19T14:43:27.000Z</time>
      </trkpt>
      <trkpt lat="48.01276" lon="6.97673">
        <ele>1038.84</ele>
        <time>2022-03-19T14:43:37.000Z</time>
      </trkpt>
      <trkpt lat="48.01267" lon="6.97664">
        <ele>1041.55</ele>
        <time>2022-03-19T14:43:47.000Z</time>
      </trkpt>
      <trkpt lat="48.01262" lon="6.97661">
        <ele>1044.88</ele>
        <time>2022-03-19T14:43:57.000Z</time>
      </trkpt>
      <trkpt lat="48.01263" lon="6.97661">
        <ele>1047.99</ele>
        <time>2022-03-19T14:44:07.000Z</time>
      </trkpt>
      <trkpt lat="48.01263" lon="6.97658">
        <ele>1051.95</ele>
        <time>2022-03-19T14:44:22.000Z</time>
      </trkpt>
      <trkpt lat="48.01265" lon="6.97667">
        <ele>1054.1</ele>
        <time>2022-03-19T14:44:32.000Z</time>
      </trkpt>
      <trkpt lat="48.01265" lon="6.97663">
        <ele>1055.95</ele>
        <time>2022-03-19T14:44:42.000Z</time>
      </trkpt>
      <trkpt lat="48.01266" lon="6.97661">
        <ele>1058.83</ele>
        <time>2022-03-19T14:45:01.000Z</time>
      </trkpt>
      <trkpt lat="48.01266" lon="6.97662">
        <ele>1060.25</ele>
        <time>2022-03-19T14:45:11.000Z</time>
      </trkpt>
      <trkpt lat="48.01264" lon="6.97668">
        <ele>1061.4</ele>
        <time>2022-03-19T14:45:21.000Z</time>
      </trkpt>
      <trkpt lat="48.01261" lon="6.97673">
        <ele>1060.75</ele>
        <time>2022-03-19T14:45:31.000Z</time>
      </trkpt>
      <trkpt lat="48.01262" lon="6.97674">
        <ele>1060.99</ele>
        <time>2022-03-19T14:45:45.958Z</time>
      </trkpt>
      <trkpt lat="48.01264" lon="6.97676">
        <ele>1061.91</ele>
        <time>2022-03-19T14:45:55.000Z</time>
      </trkpt>
      <trkpt lat="48.01266" lon="6.9767">
        <ele>1063.63</ele>
        <time>2022-03-19T14:46:04.258Z</time>
      </trkpt>
      <trkpt lat="48.01269" lon="6.97662">
        <ele>1065.34</ele>
        <time>2022-03-19T14:46:15.000Z</time>
      </trkpt>
      <trkpt lat="48.01272" lon="6.97658">
        <ele>1067.11</ele>
        <time>2022-03-19T14:46:25.000Z</time>
      </trkpt>
      <trkpt lat="48.01275" lon="6.97649">
        <ele>1068.6</ele>
        <time>2022-03-19T14:46:34.494Z</time>
      </trkpt>
      <trkpt lat="48.01273" lon="6.9764">
        <ele>1069.41</ele>
        <time>2022-03-19T14:46:44.000Z</time>
      </trkpt>
      <trkpt lat="48.01274" lon="6.97634">
        <ele>1070.23</ele>
        <time>2022-03-19T14:46:54.000Z</time>
      </trkpt>
      <trkpt lat="48.01275" lon="6.97629">
        <ele>1070.88</ele>
        <time>2022-03-19T14:47:04.000Z</time>
      </trkpt>
      <trkpt lat="48.01277" lon="6.97624">
        <ele>1071.29</ele>
        <time>2022-03-19T14:47:13.394Z</time>
      </trkpt>
      <trkpt lat="48.0128" lon="6.97619">
        <ele>1071.36</ele>
        <time>2022-03-19T14:47:23.000Z</time>
      </trkpt>
      <trkpt lat="48.01284" lon="6.97608">
        <ele>1071.52</ele>
        <time>2022-03-19T14:47:32.574Z</time>
      </trkpt>
      <trkpt lat="48.0129" lon="6.97601">
        <ele>1071.99</ele>
        <time>2022-03-19T14:47:42.000Z</time>
      </trkpt>
      <trkpt lat="48.01295" lon="6.97595">
        <ele>1072.52</ele>
        <time>2022-03-19T14:47:52.000Z</time>
      </trkpt>
      <trkpt lat="48.01299" lon="6.97589">
        <ele>1073.18</ele>
        <time>2022-03-19T14:48:01.511Z</time>
      </trkpt>
      <trkpt lat="48.01302" lon="6.97577">
        <ele>1073.8</ele>
        <time>2022-03-19T14:48:12.000Z</time>
      </trkpt>
      <trkpt lat="48.01309" lon="6.97567">
        <ele>1074.46</ele>
        <time>2022-03-19T14:48:22.000Z</time>
      </trkpt>
      <trkpt lat="48.01314" lon="6.97558">
        <ele>1074.74</ele>
        <time>2022-03-19T14:48:32.000Z</time>
      </trkpt>
      <trkpt lat="48.01319" lon="6.97549">
        <ele>1074.7</ele>
        <time>2022-03-19T14:48:41.395Z</time>
      </trkpt>
      <trkpt lat="48.0132" lon="6.97549">
        <ele>1074.65</ele>
        <time>2022-03-19T14:48:50.696Z</time>
      </trkpt>
      <trkpt lat="48.01324" lon="6.97552">
        <ele>1074.79</ele>
        <time>2022-03-19T14:49:00.000Z</time>
      </trkpt>
      <trkpt lat="48.01328" lon="6.97553">
        <ele>1074.53</ele>
        <time>2022-03-19T14:49:09.552Z</time>
      </trkpt>
      <trkpt lat="48.0133" lon="6.97552">
        <ele>1074.06</ele>
        <time>2022-03-19T14:49:19.000Z</time>
      </trkpt>
      <trkpt lat="48.01336" lon="6.97544">
        <ele>1072.93</ele>
        <time>2022-03-19T14:49:30.000Z</time>
      </trkpt>
      <trkpt lat="48.01342" lon="6.9754">
        <ele>1071.76</ele>
        <time>2022-03-19T14:49:40.000Z</time>
      </trkpt>
      <trkpt lat="48.01348" lon="6.97538">
        <ele>1071.01</ele>
        <time>2022-03-19T14:49:49.781Z</time>
      </trkpt>
      <trkpt lat="48.01352" lon="6.97533">
        <ele>1070.52</ele>
        <time>2022-03-19T14:50:00.000Z</time>
      </trkpt>
      <trkpt lat="48.01356" lon="6.97527">
        <ele>1070.3</ele>
        <time>2022-03-19T14:50:10.000Z</time>
      </trkpt>
      <trkpt lat="48.01359" lon="6.97525">
        <ele>1070.41</ele>
        <time>2022-03-19T14:50:20.000Z</time>
      </trkpt>
      <trkpt lat="48.01364" lon="6.97519">
        <ele>1070.97</ele>
        <time>2022-03-19T14:50:30.000Z</time>
      </trkpt>
      <trkpt lat="48.01375" lon="6.97502">
        <ele>1071.65</ele>
        <time>2022-03-19T14:50:39.613Z</time>
      </trkpt>
      <trkpt lat="48.0139" lon="6.97479">
        <ele>1072.29</ele>
        <time>2022-03-19T14:50:49.000Z</time>
      </trkpt>
      <trkpt lat="48.01392" lon="6.97477">
        <ele>1072.98</ele>
        <time>2022-03-19T14:50:59.000Z</time>
      </trkpt>
      <trkpt lat="48.01394" lon="6.97475">
        <ele>1072.99</ele>
        <time>2022-03-19T14:51:08.559Z</time>
      </trkpt>
      <trkpt lat="48.01394" lon="6.97475">
        <ele>1072.7</ele>
        <time>2022-03-19T14:51:18.000Z</time>
      </trkpt>
      <trkpt lat="48.01393" lon="6.97474">
        <ele>1072.4</ele>
        <time>2022-03-19T14:51:28.000Z</time>
      </trkpt>
      <trkpt lat="48.01395" lon="6.97468">
        <ele>1071.99</ele>
        <time>2022-03-19T14:51:38.000Z</time>
      </trkpt>
      <trkpt lat="48.01403" lon="6.9746">
        <ele>1072.07</ele>
        <time>2022-03-19T14:51:47.812Z</time>
      </trkpt>
      <trkpt lat="48.01411" lon="6.97454">
        <ele>1072.67</ele>
        <time>2022-03-19T14:51:57.046Z</time>
      </trkpt>
      <trkpt lat="48.01418" lon="6.97447">
        <ele>1073.49</ele>
        <time>2022-03-19T14:52:06.740Z</time>
      </trkpt>
      <trkpt lat="48.01426" lon="6.97437">
        <ele>1074.07</ele>
        <time>2022-03-19T14:52:17.000Z</time>
      </trkpt>
      <trkpt lat="48.01437" lon="6.97421">
        <ele>1074.73</ele>
        <time>2022-03-19T14:52:26.416Z</time>
      </trkpt>
      <trkpt lat="48.01447" lon="6.97412">
        <ele>1075.1</ele>
        <time>2022-03-19T14:52:35.878Z</time>
      </trkpt>
      <trkpt lat="48.01453" lon="6.97405">
        <ele>1075.49</ele>
        <time>2022-03-19T14:52:45.000Z</time>
      </trkpt>
      <trkpt lat="48.0146" lon="6.97391">
        <ele>1075.75</ele>
        <time>2022-03-19T14:52:54.241Z</time>
      </trkpt>
      <trkpt lat="48.01464" lon="6.97376">
        <ele>1076.21</ele>
        <time>2022-03-19T14:53:03.860Z</time>
      </trkpt>
      <trkpt lat="48.01472" lon="6.97366">
        <ele>1076.57</ele>
        <time>2022-03-19T14:53:15.000Z</time>
      </trkpt>
      <trkpt lat="48.01481" lon="6.97368">
        <ele>1077.22</ele>
        <time>2022-03-19T14:53:24.899Z</time>
      </trkpt>
      <trkpt lat="48.01487" lon="6.97369">
        <ele>1077.64</ele>
        <time>2022-03-19T14:53:35.000Z</time>
      </trkpt>
      <trkpt lat="48.01487" lon="6.97367">
        <ele>1079.4</ele>
        <time>2022-03-19T14:53:44.574Z</time>
      </trkpt>
      <trkpt lat="48.0149" lon="6.97356">
        <ele>1080.64</ele>
        <time>2022-03-19T14:53:55.000Z</time>
      </trkpt>
      <trkpt lat="48.01495" lon="6.97347">
        <ele>1081.6</ele>
        <time>2022-03-19T14:54:04.221Z</time>
      </trkpt>
      <trkpt lat="48.01504" lon="6.9734">
        <ele>1082.63</ele>
        <time>2022-03-19T14:54:15.000Z</time>
      </trkpt>
      <trkpt lat="48.01511" lon="6.97328">
        <ele>1083.23</ele>
        <time>2022-03-19T14:54:24.413Z</time>
      </trkpt>
      <trkpt lat="48.01518" lon="6.97316">
        <ele>1083.49</ele>
        <time>2022-03-19T14:54:35.000Z</time>
      </trkpt>
      <trkpt lat="48.0152" lon="6.97305">
        <ele>1083.62</ele>
        <time>2022-03-19T14:54:44.723Z</time>
      </trkpt>
      <trkpt lat="48.0152" lon="6.97293">
        <ele>1084.13</ele>
        <time>2022-03-19T14:54:54.000Z</time>
      </trkpt>
      <trkpt lat="48.01523" lon="6.97284">
        <ele>1084.55</ele>
        <time>2022-03-19T14:55:03.196Z</time>
      </trkpt>
      <trkpt lat="48.01525" lon="6.97276">
        <ele>1084.96</ele>
        <time>2022-03-19T14:55:13.000Z</time>
      </trkpt>
      <trkpt lat="48.0153" lon="6.97271">
        <ele>1085.42</ele>
        <time>2022-03-19T14:55:22.895Z</time>
      </trkpt>
      <trkpt lat="48.01535" lon="6.97268">
        <ele>1085.83</ele>
        <time>2022-03-19T14:55:32.000Z</time>
      </trkpt>
      <trkpt lat="48.01538" lon="6.97263">
        <ele>1085.98</ele>
        <time>2022-03-19T14:55:42.000Z</time>
      </trkpt>
      <trkpt lat="48.01545" lon="6.97257">
        <ele>1086.37</ele>
        <time>2022-03-19T14:55:51.252Z</time>
      </trkpt>
      <trkpt lat="48.0155" lon="6.9725">
        <ele>1086.98</ele>
        <time>2022-03-19T14:56:01.000Z</time>
      </trkpt>
      <trkpt lat="48.01553" lon="6.97243">
        <ele>1088.38</ele>
        <time>2022-03-19T14:56:11.000Z</time>
      </trkpt>
      <trkpt lat="48.01553" lon="6.97239">
        <ele>1089.78</ele>
        <time>2022-03-19T14:56:20.451Z</time>
      </trkpt>
      <trkpt lat="48.01554" lon="6.97234">
        <ele>1091.91</ele>
        <time>2022-03-19T14:56:31.000Z</time>
      </trkpt>
      <trkpt lat="48.0156" lon="6.97234">
        <ele>1093.91</ele>
        <time>2022-03-19T14:56:41.000Z</time>
      </trkpt>
      <trkpt lat="48.01568" lon="6.97234">
        <ele>1095.64</ele>
        <time>2022-03-19T14:56:50.552Z</time>
      </trkpt>
      <trkpt lat="48.01575" lon="6.97231">
        <ele>1095.77</ele>
        <time>2022-03-19T14:56:59.853Z</time>
      </trkpt>
      <trkpt lat="48.01583" lon="6.97225">
        <ele>1095.59</ele>
        <time>2022-03-19T14:57:10.000Z</time>
      </trkpt>
      <trkpt lat="48.01596" lon="6.97217">
        <ele>1096.12</ele>
        <time>2022-03-19T14:57:19.330Z</time>
      </trkpt>
      <trkpt lat="48.01609" lon="6.97207">
        <ele>1096.82</ele>
        <time>2022-03-19T14:57:29.000Z</time>
      </trkpt>
      <trkpt lat="48.01615" lon="6.97186">
        <ele>1097.2</ele>
        <time>2022-03-19T14:57:38.616Z</time>
      </trkpt>
      <trkpt lat="48.01616" lon="6.97173">
        <ele>1097.8</ele>
        <time>2022-03-19T14:57:48.000Z</time>
      </trkpt>
      <trkpt lat="48.01615" lon="6.97164">
        <ele>1098.91</ele>
        <time>2022-03-19T14:57:58.000Z</time>
      </trkpt>
      <trkpt lat="48.01616" lon="6.97152">
        <ele>1100.17</ele>
        <time>2022-03-19T14:58:07.584Z</time>
      </trkpt>
      <trkpt lat="48.01618" lon="6.97137">
        <ele>1100.91</ele>
        <time>2022-03-19T14:58:16.759Z</time>
      </trkpt>
      <trkpt lat="48.01618" lon="6.97125">
        <ele>1101.77</ele>
        <time>2022-03-19T14:58:25.893Z</time>
      </trkpt>
      <trkpt lat="48.01619" lon="6.9712">
        <ele>1102.73</ele>
        <time>2022-03-19T14:58:36.332Z</time>
      </trkpt>
      <trkpt lat="48.01616" lon="6.97116">
        <ele>1104.07</ele>
        <time>2022-03-19T14:58:45.459Z</time>
      </trkpt>
      <trkpt lat="48.0161" lon="6.97108">
        <ele>1105.99</ele>
        <time>2022-03-19T14:58:56.000Z</time>
      </trkpt>
      <trkpt lat="48.01606" lon="6.97098">
        <ele>1107.78</ele>
        <time>2022-03-19T14:59:05.337Z</time>
      </trkpt>
      <trkpt lat="48.01601" lon="6.97085">
        <ele>1109.28</ele>
        <time>2022-03-19T14:59:14.536Z</time>
      </trkpt>
      <trkpt lat="48.01594" lon="6.97072">
        <ele>1110.55</ele>
        <time>2022-03-19T14:59:24.000Z</time>
      </trkpt>
      <trkpt lat="48.0159" lon="6.9706">
        <ele>1112.26</ele>
        <time>2022-03-19T14:59:33.235Z</time>
      </trkpt>
      <trkpt lat="48.01588" lon="6.97055">
        <ele>1114</ele>
        <time>2022-03-19T14:59:42.514Z</time>
      </trkpt>
      <trkpt lat="48.01587" lon="6.97052">
        <ele>1115.65</ele>
        <time>2022-03-19T14:59:52.000Z</time>
      </trkpt>
      <trkpt lat="48.01585" lon="6.97049">
        <ele>1117.54</ele>
        <time>2022-03-19T15:00:02.000Z</time>
      </trkpt>
      <trkpt lat="48.01579" lon="6.97042">
        <ele>1118.51</ele>
        <time>2022-03-19T15:00:12.000Z</time>
      </trkpt>
      <trkpt lat="48.01571" lon="6.97034">
        <ele>1119.38</ele>
        <time>2022-03-19T15:00:22.000Z</time>
      </trkpt>
      <trkpt lat="48.01564" lon="6.97021">
        <ele>1120.07</ele>
        <time>2022-03-19T15:00:31.713Z</time>
      </trkpt>
      <trkpt lat="48.01561" lon="6.97011">
        <ele>1120.05</ele>
        <time>2022-03-19T15:00:41.000Z</time>
      </trkpt>
      <trkpt lat="48.01557" lon="6.97003">
        <ele>1120.04</ele>
        <time>2022-03-19T15:00:50.395Z</time>
      </trkpt>
      <trkpt lat="48.01556" lon="6.97001">
        <ele>1120.71</ele>
        <time>2022-03-19T15:00:59.468Z</time>
      </trkpt>
      <trkpt lat="48.01557" lon="6.96997">
        <ele>1121.38</ele>
        <time>2022-03-19T15:01:09.000Z</time>
      </trkpt>
      <trkpt lat="48.01557" lon="6.96989">
        <ele>1122.47</ele>
        <time>2022-03-19T15:01:18.760Z</time>
      </trkpt>
      <trkpt lat="48.01555" lon="6.96983">
        <ele>1123.75</ele>
        <time>2022-03-19T15:01:29.000Z</time>
      </trkpt>
      <trkpt lat="48.01544" lon="6.96983">
        <ele>1124.5</ele>
        <time>2022-03-19T15:01:38.395Z</time>
      </trkpt>
      <trkpt lat="48.01535" lon="6.96978">
        <ele>1124.94</ele>
        <time>2022-03-19T15:01:47.522Z</time>
      </trkpt>
      <trkpt lat="48.01532" lon="6.9697">
        <ele>1125.11</ele>
        <time>2022-03-19T15:01:57.000Z</time>
      </trkpt>
      <trkpt lat="48.01528" lon="6.96963">
        <ele>1125.11</ele>
        <time>2022-03-19T15:02:06.556Z</time>
      </trkpt>
      <trkpt lat="48.01526" lon="6.96952">
        <ele>1125.14</ele>
        <time>2022-03-19T15:02:15.753Z</time>
      </trkpt>
      <trkpt lat="48.01525" lon="6.96945">
        <ele>1125.26</ele>
        <time>2022-03-19T15:02:26.000Z</time>
      </trkpt>
      <trkpt lat="48.01522" lon="6.96938">
        <ele>1125.65</ele>
        <time>2022-03-19T15:02:35.093Z</time>
      </trkpt>
      <trkpt lat="48.01515" lon="6.96932">
        <ele>1125.83</ele>
        <time>2022-03-19T15:02:46.000Z</time>
      </trkpt>
      <trkpt lat="48.01503" lon="6.9693">
        <ele>1126.1</ele>
        <time>2022-03-19T15:02:55.611Z</time>
      </trkpt>
      <trkpt lat="48.01498" lon="6.96927">
        <ele>1126.68</ele>
        <time>2022-03-19T15:03:05.000Z</time>
      </trkpt>
      <trkpt lat="48.015" lon="6.96921">
        <ele>1127.36</ele>
        <time>2022-03-19T15:03:15.000Z</time>
      </trkpt>
      <trkpt lat="48.01501" lon="6.96918">
        <ele>1127.71</ele>
        <time>2022-03-19T15:03:25.000Z</time>
      </trkpt>
      <trkpt lat="48.01492" lon="6.96914">
        <ele>1127.76</ele>
        <time>2022-03-19T15:03:35.000Z</time>
      </trkpt>
      <trkpt lat="48.01488" lon="6.96909">
        <ele>1127.46</ele>
        <time>2022-03-19T15:03:45.000Z</time>
      </trkpt>
      <trkpt lat="48.01488" lon="6.96907">
        <ele>1124.87</ele>
        <time>2022-03-19T15:04:26.000Z</time>
      </trkpt>
      <trkpt lat="48.01488" lon="6.96904">
        <ele>1124.32</ele>
        <time>2022-03-19T15:04:36.000Z</time>
      </trkpt>
      <trkpt lat="48.01484" lon="6.96899">
        <ele>1123.82</ele>
        <time>2022-03-19T15:04:46.000Z</time>
      </trkpt>
      <trkpt lat="48.01479" lon="6.96895">
        <ele>1123.32</ele>
        <time>2022-03-19T15:04:57.000Z</time>
      </trkpt>
      <trkpt lat="48.01473" lon="6.96888">
        <ele>1122.9</ele>
        <time>2022-03-19T15:05:07.000Z</time>
      </trkpt>
      <trkpt lat="48.01467" lon="6.96884">
        <ele>1122.46</ele>
        <time>2022-03-19T15:05:16.316Z</time>
      </trkpt>
      <trkpt lat="48.01465" lon="6.96881">
        <ele>1122.14</ele>
        <time>2022-03-19T15:05:26.000Z</time>
      </trkpt>
      <trkpt lat="48.01461" lon="6.96878">
        <ele>1121.72</ele>
        <time>2022-03-19T15:05:36.000Z</time>
      </trkpt>
      <trkpt lat="48.01448" lon="6.96874">
        <ele>1121.54</ele>
        <time>2022-03-19T15:05:45.820Z</time>
      </trkpt>
      <trkpt lat="48.01443" lon="6.96866">
        <ele>1121.52</ele>
        <time>2022-03-19T15:05:55.000Z</time>
      </trkpt>
      <trkpt lat="48.01442" lon="6.96863">
        <ele>1121.58</ele>
        <time>2022-03-19T15:06:04.399Z</time>
      </trkpt>
      <trkpt lat="48.01439" lon="6.96859">
        <ele>1121.78</ele>
        <time>2022-03-19T15:06:13.616Z</time>
      </trkpt>
      <trkpt lat="48.01436" lon="6.96852">
        <ele>1121.95</ele>
        <time>2022-03-19T15:06:23.000Z</time>
      </trkpt>
      <trkpt lat="48.01426" lon="6.96847">
        <ele>1122.23</ele>
        <time>2022-03-19T15:06:33.000Z</time>
      </trkpt>
      <trkpt lat="48.01408" lon="6.96848">
        <ele>1123.37</ele>
        <time>2022-03-19T15:06:42.570Z</time>
      </trkpt>
      <trkpt lat="48.01399" lon="6.96845">
        <ele>1124.28</ele>
        <time>2022-03-19T15:06:53.000Z</time>
      </trkpt>
      <trkpt lat="48.01391" lon="6.96844">
        <ele>1124.74</ele>
        <time>2022-03-19T15:07:02.359Z</time>
      </trkpt>
      <trkpt lat="48.01384" lon="6.96841">
        <ele>1125.17</ele>
        <time>2022-03-19T15:07:11.698Z</time>
      </trkpt>
      <trkpt lat="48.01377" lon="6.96838">
        <ele>1125.66</ele>
        <time>2022-03-19T15:07:22.000Z</time>
      </trkpt>
      <trkpt lat="48.01369" lon="6.96836">
        <ele>1126.09</ele>
        <time>2022-03-19T15:07:33.000Z</time>
      </trkpt>
      <trkpt lat="48.01367" lon="6.96836">
        <ele>1126.52</ele>
        <time>2022-03-19T15:07:43.000Z</time>
      </trkpt>
      <trkpt lat="48.01365" lon="6.96835">
        <ele>1127.02</ele>
        <time>2022-03-19T15:07:53.000Z</time>
      </trkpt>
      <trkpt lat="48.01364" lon="6.96834">
        <ele>1127.71</ele>
        <time>2022-03-19T15:08:05.000Z</time>
      </trkpt>
      <trkpt lat="48.01363" lon="6.96835">
        <ele>1128.39</ele>
        <time>2022-03-19T15:08:15.000Z</time>
      </trkpt>
      <trkpt lat="48.01364" lon="6.96836">
        <ele>1129.71</ele>
        <time>2022-03-19T15:08:40.000Z</time>
      </trkpt>
      <trkpt lat="48.01364" lon="6.96835">
        <ele>1130.14</ele>
        <time>2022-03-19T15:08:51.000Z</time>
      </trkpt>
      <trkpt lat="48.01366" lon="6.96833">
        <ele>1130.42</ele>
        <time>2022-03-19T15:09:01.000Z</time>
      </trkpt>
      <trkpt lat="48.01366" lon="6.96832">
        <ele>1130.85</ele>
        <time>2022-03-19T15:09:52.000Z</time>
      </trkpt>
      <trkpt lat="48.01368" lon="6.9683">
        <ele>1130.52</ele>
        <time>2022-03-19T15:10:23.000Z</time>
      </trkpt>
      <trkpt lat="48.0137" lon="6.96829">
        <ele>1130.31</ele>
        <time>2022-03-19T15:10:33.000Z</time>
      </trkpt>
      <trkpt lat="48.01369" lon="6.9683">
        <ele>1130.12</ele>
        <time>2022-03-19T15:10:42.615Z</time>
      </trkpt>
      <trkpt lat="48.01366" lon="6.9683">
        <ele>1129.95</ele>
        <time>2022-03-19T15:10:52.000Z</time>
      </trkpt>
      <trkpt lat="48.01348" lon="6.96846">
        <ele>1129.75</ele>
        <time>2022-03-19T15:11:02.000Z</time>
      </trkpt>
      <trkpt lat="48.01337" lon="6.96849">
        <ele>1129.15</ele>
        <time>2022-03-19T15:11:11.500Z</time>
      </trkpt>
      <trkpt lat="48.01332" lon="6.96856">
        <ele>1128.52</ele>
        <time>2022-03-19T15:11:21.000Z</time>
      </trkpt>
      <trkpt lat="48.01325" lon="6.96854">
        <ele>1128.03</ele>
        <time>2022-03-19T15:11:31.000Z</time>
      </trkpt>
      <trkpt lat="48.01314" lon="6.96845">
        <ele>1127.1</ele>
        <time>2022-03-19T15:11:41.000Z</time>
      </trkpt>
      <trkpt lat="48.0131" lon="6.96853">
        <ele>1126.23</ele>
        <time>2022-03-19T15:11:50.493Z</time>
      </trkpt>
      <trkpt lat="48.01309" lon="6.96861">
        <ele>1125.88</ele>
        <time>2022-03-19T15:12:00.000Z</time>
      </trkpt>
      <trkpt lat="48.01311" lon="6.96869">
        <ele>1125.63</ele>
        <time>2022-03-19T15:12:09.074Z</time>
      </trkpt>
      <trkpt lat="48.01312" lon="6.9688">
        <ele>1125.48</ele>
        <time>2022-03-19T15:12:18.330Z</time>
      </trkpt>
      <trkpt lat="48.01309" lon="6.96892">
        <ele>1125.55</ele>
        <time>2022-03-19T15:12:27.713Z</time>
      </trkpt>
      <trkpt lat="48.0131" lon="6.96905">
        <ele>1126.08</ele>
        <time>2022-03-19T15:12:37.000Z</time>
      </trkpt>
      <trkpt lat="48.01307" lon="6.96912">
        <ele>1127.63</ele>
        <time>2022-03-19T15:12:47.000Z</time>
      </trkpt>
      <trkpt lat="48.01303" lon="6.96918">
        <ele>1129.06</ele>
        <time>2022-03-19T15:12:58.000Z</time>
      </trkpt>
      <trkpt lat="48.01295" lon="6.9692">
        <ele>1130.05</ele>
        <time>2022-03-19T15:13:08.000Z</time>
      </trkpt>
      <trkpt lat="48.0129" lon="6.96918">
        <ele>1130.98</ele>
        <time>2022-03-19T15:13:18.000Z</time>
      </trkpt>
      <trkpt lat="48.01285" lon="6.9692">
        <ele>1131.67</ele>
        <time>2022-03-19T15:13:28.000Z</time>
      </trkpt>
      <trkpt lat="48.01285" lon="6.96924">
        <ele>1132.12</ele>
        <time>2022-03-19T15:13:38.000Z</time>
      </trkpt>
      <trkpt lat="48.01286" lon="6.96925">
        <ele>1132.44</ele>
        <time>2022-03-19T15:13:48.000Z</time>
      </trkpt>
      <trkpt lat="48.0129" lon="6.96923">
        <ele>1132.4</ele>
        <time>2022-03-19T15:13:58.000Z</time>
      </trkpt>
      <trkpt lat="48.0129" lon="6.96921">
        <ele>1132.71</ele>
        <time>2022-03-19T15:14:08.000Z</time>
      </trkpt>
      <trkpt lat="48.01291" lon="6.9692">
        <ele>1132.98</ele>
        <time>2022-03-19T15:14:18.000Z</time>
      </trkpt>
      <trkpt lat="48.0129" lon="6.9692">
        <ele>1133.16</ele>
        <time>2022-03-19T15:14:31.000Z</time>
      </trkpt>
      <trkpt lat="48.01281" lon="6.96916">
        <ele>1132.3</ele>
        <time>2022-03-19T15:14:41.000Z</time>
      </trkpt>
      <trkpt lat="48.01272" lon="6.96918">
        <ele>1132.06</ele>
        <time>2022-03-19T15:14:51.000Z</time>
      </trkpt>
      <trkpt lat="48.0126" lon="6.96926">
        <ele>1131.89</ele>
        <time>2022-03-19T15:15:01.000Z</time>
      </trkpt>
      <trkpt lat="48.01249" lon="6.96935">
        <ele>1131.76</ele>
        <time>2022-03-19T15:15:11.000Z</time>
      </trkpt>
      <trkpt lat="48.01238" lon="6.96948">
        <ele>1131.87</ele>
        <time>2022-03-19T15:15:21.000Z</time>
      </trkpt>
      <trkpt lat="48.01231" lon="6.9696">
        <ele>1131.78</ele>
        <time>2022-03-19T15:15:30.399Z</time>
      </trkpt>
      <trkpt lat="48.01218" lon="6.96959">
        <ele>1131.62</ele>
        <time>2022-03-19T15:15:39.474Z</time>
      </trkpt>
      <trkpt lat="48.01207" lon="6.96947">
        <ele>1131.6</ele>
        <time>2022-03-19T15:15:49.000Z</time>
      </trkpt>
      <trkpt lat="48.01195" lon="6.96944">
        <ele>1131.62</ele>
        <time>2022-03-19T15:15:59.000Z</time>
      </trkpt>
      <trkpt lat="48.01186" lon="6.96941">
        <ele>1131.32</ele>
        <time>2022-03-19T15:16:08.459Z</time>
      </trkpt>
      <trkpt lat="48.01172" lon="6.96936">
        <ele>1131.01</ele>
        <time>2022-03-19T15:16:19.000Z</time>
      </trkpt>
      <trkpt lat="48.01158" lon="6.96933">
        <ele>1130.22</ele>
        <time>2022-03-19T15:16:28.416Z</time>
      </trkpt>
      <trkpt lat="48.01145" lon="6.96923">
        <ele>1129.54</ele>
        <time>2022-03-19T15:16:39.000Z</time>
      </trkpt>
      <trkpt lat="48.01143" lon="6.9692">
        <ele>1128.14</ele>
        <time>2022-03-19T15:16:48.691Z</time>
      </trkpt>
      <trkpt lat="48.01135" lon="6.96913">
        <ele>1126.98</ele>
        <time>2022-03-19T15:16:58.353Z</time>
      </trkpt>
      <trkpt lat="48.01142" lon="6.96895">
        <ele>1126.13</ele>
        <time>2022-03-19T15:17:07.879Z</time>
      </trkpt>
      <trkpt lat="48.0115" lon="6.96879">
        <ele>1124.77</ele>
        <time>2022-03-19T15:17:17.281Z</time>
      </trkpt>
      <trkpt lat="48.01158" lon="6.96868">
        <ele>1123.57</ele>
        <time>2022-03-19T15:17:26.375Z</time>
      </trkpt>
      <trkpt lat="48.0115" lon="6.96858">
        <ele>1122.55</ele>
        <time>2022-03-19T15:17:36.000Z</time>
      </trkpt>
      <trkpt lat="48.01138" lon="6.9686">
        <ele>1120.78</ele>
        <time>2022-03-19T15:17:45.531Z</time>
      </trkpt>
      <trkpt lat="48.01124" lon="6.9688">
        <ele>1119.11</ele>
        <time>2022-03-19T15:17:54.914Z</time>
      </trkpt>
      <trkpt lat="48.01113" lon="6.96876">
        <ele>1117.89</ele>
        <time>2022-03-19T15:18:04.000Z</time>
      </trkpt>
      <trkpt lat="48.01104" lon="6.96886">
        <ele>1116.46</ele>
        <time>2022-03-19T15:18:13.400Z</time>
      </trkpt>
      <trkpt lat="48.01095" lon="6.9689">
        <ele>1115.21</ele>
        <time>2022-03-19T15:18:22.809Z</time>
      </trkpt>
      <trkpt lat="48.01091" lon="6.96901">
        <ele>1114.4</ele>
        <time>2022-03-19T15:18:31.835Z</time>
      </trkpt>
      <trkpt lat="48.01089" lon="6.96912">
        <ele>1114.15</ele>
        <time>2022-03-19T15:18:41.510Z</time>
      </trkpt>
      <trkpt lat="48.01088" lon="6.96919">
        <ele>1113.89</ele>
        <time>2022-03-19T15:18:51.000Z</time>
      </trkpt>
      <trkpt lat="48.01087" lon="6.96925">
        <ele>1113.58</ele>
        <time>2022-03-19T15:19:00.822Z</time>
      </trkpt>
      <trkpt lat="48.01086" lon="6.96933">
        <ele>1113.54</ele>
        <time>2022-03-19T15:19:10.190Z</time>
      </trkpt>
      <trkpt lat="48.01075" lon="6.9694">
        <ele>1113.54</ele>
        <time>2022-03-19T15:19:20.000Z</time>
      </trkpt>
      <trkpt lat="48.01062" lon="6.96942">
        <ele>1113.35</ele>
        <time>2022-03-19T15:19:31.000Z</time>
      </trkpt>
      <trkpt lat="48.01052" lon="6.96935">
        <ele>1113.19</ele>
        <time>2022-03-19T15:19:40.209Z</time>
      </trkpt>
      <trkpt lat="48.01041" lon="6.96931">
        <ele>1112.87</ele>
        <time>2022-03-19T15:19:49.358Z</time>
      </trkpt>
      <trkpt lat="48.01033" lon="6.96938">
        <ele>1112.65</ele>
        <time>2022-03-19T15:19:58.594Z</time>
      </trkpt>
      <trkpt lat="48.01027" lon="6.96943">
        <ele>1112.66</ele>
        <time>2022-03-19T15:20:08.000Z</time>
      </trkpt>
      <trkpt lat="48.01015" lon="6.96945">
        <ele>1112.99</ele>
        <time>2022-03-19T15:20:17.500Z</time>
      </trkpt>
      <trkpt lat="48.01006" lon="6.96943">
        <ele>1113.33</ele>
        <time>2022-03-19T15:20:27.000Z</time>
      </trkpt>
      <trkpt lat="48.00999" lon="6.96945">
        <ele>1113.57</ele>
        <time>2022-03-19T15:20:36.330Z</time>
      </trkpt>
      <trkpt lat="48.00994" lon="6.96947">
        <ele>1113.46</ele>
        <time>2022-03-19T15:20:45.398Z</time>
      </trkpt>
      <trkpt lat="48.00992" lon="6.9695">
        <ele>1113.36</ele>
        <time>2022-03-19T15:20:55.000Z</time>
      </trkpt>
      <trkpt lat="48.00992" lon="6.96949">
        <ele>1112.87</ele>
        <time>2022-03-19T15:21:11.000Z</time>
      </trkpt>
      <trkpt lat="48.00995" lon="6.96946">
        <ele>1112.61</ele>
        <time>2022-03-19T15:21:21.000Z</time>
      </trkpt>
      <trkpt lat="48.00998" lon="6.96948">
        <ele>1112.39</ele>
        <time>2022-03-19T15:21:31.000Z</time>
      </trkpt>
      <trkpt lat="48.00992" lon="6.96946">
        <ele>1112.03</ele>
        <time>2022-03-19T15:21:41.000Z</time>
      </trkpt>
      <trkpt lat="48.00995" lon="6.9694">
        <ele>1111.56</ele>
        <time>2022-03-19T15:21:52.000Z</time>
      </trkpt>
      <trkpt lat="48.00993" lon="6.96931">
        <ele>1110.83</ele>
        <time>2022-03-19T15:22:02.000Z</time>
      </trkpt>
      <trkpt lat="48.00982" lon="6.96931">
        <ele>1110.34</ele>
        <time>2022-03-19T15:22:12.000Z</time>
      </trkpt>
      <trkpt lat="48.0097" lon="6.96941">
        <ele>1109.78</ele>
        <time>2022-03-19T15:22:21.114Z</time>
      </trkpt>
      <trkpt lat="48.00957" lon="6.96946">
        <ele>1108.98</ele>
        <time>2022-03-19T15:22:31.000Z</time>
      </trkpt>
      <trkpt lat="48.00951" lon="6.96936">
        <ele>1108.06</ele>
        <time>2022-03-19T15:22:41.000Z</time>
      </trkpt>
      <trkpt lat="48.00945" lon="6.96926">
        <ele>1107.25</ele>
        <time>2022-03-19T15:22:50.850Z</time>
      </trkpt>
      <trkpt lat="48.00935" lon="6.96926">
        <ele>1106.49</ele>
        <time>2022-03-19T15:23:01.000Z</time>
      </trkpt>
      <trkpt lat="48.00926" lon="6.96915">
        <ele>1105.79</ele>
        <time>2022-03-19T15:23:12.000Z</time>
      </trkpt>
      <trkpt lat="48.00923" lon="6.96918">
        <ele>1105.28</ele>
        <time>2022-03-19T15:23:22.000Z</time>
      </trkpt>
      <trkpt lat="48.0092" lon="6.96921">
        <ele>1104.87</ele>
        <time>2022-03-19T15:23:32.000Z</time>
      </trkpt>
      <trkpt lat="48.00918" lon="6.96925">
        <ele>1104.32</ele>
        <time>2022-03-19T15:23:41.554Z</time>
      </trkpt>
      <trkpt lat="48.00913" lon="6.96921">
        <ele>1103.59</ele>
        <time>2022-03-19T15:23:50.714Z</time>
      </trkpt>
      <trkpt lat="48.00908" lon="6.96916">
        <ele>1102.98</ele>
        <time>2022-03-19T15:24:01.000Z</time>
      </trkpt>
      <trkpt lat="48.00907" lon="6.96905">
        <ele>1102.55</ele>
        <time>2022-03-19T15:24:11.000Z</time>
      </trkpt>
      <trkpt lat="48.00904" lon="6.96899">
        <ele>1102.22</ele>
        <time>2022-03-19T15:24:20.693Z</time>
      </trkpt>
      <trkpt lat="48.00903" lon="6.96893">
        <ele>1101.83</ele>
        <time>2022-03-19T15:24:30.774Z</time>
      </trkpt>
      <trkpt lat="48.00894" lon="6.96887">
        <ele>1101.5</ele>
        <time>2022-03-19T15:24:40.075Z</time>
      </trkpt>
      <trkpt lat="48.00882" lon="6.9691">
        <ele>1101.33</ele>
        <time>2022-03-19T15:24:49.496Z</time>
      </trkpt>
      <trkpt lat="48.00869" lon="6.96918">
        <ele>1101.4</ele>
        <time>2022-03-19T15:24:59.000Z</time>
      </trkpt>
      <trkpt lat="48.00862" lon="6.96896">
        <ele>1101.27</ele>
        <time>2022-03-19T15:25:09.000Z</time>
      </trkpt>
      <trkpt lat="48.00855" lon="6.96869">
        <ele>1101.61</ele>
        <time>2022-03-19T15:25:18.451Z</time>
      </trkpt>
      <trkpt lat="48.0084" lon="6.96862">
        <ele>1101.96</ele>
        <time>2022-03-19T15:25:28.000Z</time>
      </trkpt>
      <trkpt lat="48.00825" lon="6.96862">
        <ele>1101.79</ele>
        <time>2022-03-19T15:25:38.000Z</time>
      </trkpt>
      <trkpt lat="48.00824" lon="6.96843">
        <ele>1101.48</ele>
        <time>2022-03-19T15:25:47.053Z</time>
      </trkpt>
      <trkpt lat="48.00823" lon="6.96826">
        <ele>1101.29</ele>
        <time>2022-03-19T15:25:57.000Z</time>
      </trkpt>
      <trkpt lat="48.0082" lon="6.96812">
        <ele>1101.22</ele>
        <time>2022-03-19T15:26:07.000Z</time>
      </trkpt>
      <trkpt lat="48.0081" lon="6.96804">
        <ele>1101.08</ele>
        <time>2022-03-19T15:26:16.676Z</time>
      </trkpt>
      <trkpt lat="48.00803" lon="6.96794">
        <ele>1100.65</ele>
        <time>2022-03-19T15:26:25.777Z</time>
      </trkpt>
      <trkpt lat="48.00798" lon="6.96785">
        <ele>1100.3</ele>
        <time>2022-03-19T15:26:36.000Z</time>
      </trkpt>
      <trkpt lat="48.00792" lon="6.96779">
        <ele>1099.56</ele>
        <time>2022-03-19T15:26:46.000Z</time>
      </trkpt>
      <trkpt lat="48.00791" lon="6.96766">
        <ele>1098.35</ele>
        <time>2022-03-19T15:26:55.316Z</time>
      </trkpt>
      <trkpt lat="48.00788" lon="6.96753">
        <ele>1097.07</ele>
        <time>2022-03-19T15:27:05.000Z</time>
      </trkpt>
      <trkpt lat="48.00775" lon="6.96745">
        <ele>1095.51</ele>
        <time>2022-03-19T15:27:15.000Z</time>
      </trkpt>
      <trkpt lat="48.00768" lon="6.96741">
        <ele>1093.32</ele>
        <time>2022-03-19T15:27:24.656Z</time>
      </trkpt>
      <trkpt lat="48.00767" lon="6.9673">
        <ele>1091.97</ele>
        <time>2022-03-19T15:27:35.000Z</time>
      </trkpt>
      <trkpt lat="48.00765" lon="6.96717">
        <ele>1090.24</ele>
        <time>2022-03-19T15:27:44.077Z</time>
      </trkpt>
      <trkpt lat="48.00763" lon="6.96709">
        <ele>1088.72</ele>
        <time>2022-03-19T15:27:54.000Z</time>
      </trkpt>
      <trkpt lat="48.0076" lon="6.96701">
        <ele>1087</ele>
        <time>2022-03-19T15:28:03.695Z</time>
      </trkpt>
      <trkpt lat="48.00753" lon="6.96696">
        <ele>1085.37</ele>
        <time>2022-03-19T15:28:12.909Z</time>
      </trkpt>
      <trkpt lat="48.00746" lon="6.96691">
        <ele>1084.28</ele>
        <time>2022-03-19T15:28:22.000Z</time>
      </trkpt>
      <trkpt lat="48.00735" lon="6.96689">
        <ele>1082.68</ele>
        <time>2022-03-19T15:28:31.794Z</time>
      </trkpt>
      <trkpt lat="48.00726" lon="6.96685">
        <ele>1081.52</ele>
        <time>2022-03-19T15:28:41.330Z</time>
      </trkpt>
      <trkpt lat="48.00719" lon="6.96676">
        <ele>1080.35</ele>
        <time>2022-03-19T15:28:51.000Z</time>
      </trkpt>
      <trkpt lat="48.00713" lon="6.9667">
        <ele>1078.95</ele>
        <time>2022-03-19T15:29:01.000Z</time>
      </trkpt>
      <trkpt lat="48.00705" lon="6.96678">
        <ele>1077.21</ele>
        <time>2022-03-19T15:29:10.452Z</time>
      </trkpt>
      <trkpt lat="48.00696" lon="6.96685">
        <ele>1075.84</ele>
        <time>2022-03-19T15:29:19.541Z</time>
      </trkpt>
      <trkpt lat="48.00688" lon="6.96688">
        <ele>1074.59</ele>
        <time>2022-03-19T15:29:30.000Z</time>
      </trkpt>
      <trkpt lat="48.00676" lon="6.96682">
        <ele>1073.44</ele>
        <time>2022-03-19T15:29:39.570Z</time>
      </trkpt>
      <trkpt lat="48.00666" lon="6.96686">
        <ele>1072.18</ele>
        <time>2022-03-19T15:29:48.910Z</time>
      </trkpt>
      <trkpt lat="48.00658" lon="6.96699">
        <ele>1071.08</ele>
        <time>2022-03-19T15:29:58.000Z</time>
      </trkpt>
      <trkpt lat="48.00648" lon="6.96707">
        <ele>1069.9</ele>
        <time>2022-03-19T15:30:08.000Z</time>
      </trkpt>
      <trkpt lat="48.00638" lon="6.96704">
        <ele>1068.73</ele>
        <time>2022-03-19T15:30:17.356Z</time>
      </trkpt>
      <trkpt lat="48.00628" lon="6.96704">
        <ele>1067.55</ele>
        <time>2022-03-19T15:30:26.799Z</time>
      </trkpt>
      <trkpt lat="48.00618" lon="6.96708">
        <ele>1066.37</ele>
        <time>2022-03-19T15:30:36.596Z</time>
      </trkpt>
      <trkpt lat="48.0061" lon="6.96708">
        <ele>1065.59</ele>
        <time>2022-03-19T15:30:46.000Z</time>
      </trkpt>
      <trkpt lat="48.00601" lon="6.96716">
        <ele>1064.5</ele>
        <time>2022-03-19T15:30:57.000Z</time>
      </trkpt>
      <trkpt lat="48.00592" lon="6.96715">
        <ele>1063.49</ele>
        <time>2022-03-19T15:31:07.000Z</time>
      </trkpt>
      <trkpt lat="48.00582" lon="6.96715">
        <ele>1062.22</ele>
        <time>2022-03-19T15:31:17.000Z</time>
      </trkpt>
      <trkpt lat="48.0058" lon="6.96717">
        <ele>1061.41</ele>
        <time>2022-03-19T15:31:27.000Z</time>
      </trkpt>
      <trkpt lat="48.00579" lon="6.9672">
        <ele>1060.69</ele>
        <time>2022-03-19T15:31:37.000Z</time>
      </trkpt>
      <trkpt lat="48.00573" lon="6.9672">
        <ele>1059.94</ele>
        <time>2022-03-19T15:31:47.000Z</time>
      </trkpt>
      <trkpt lat="48.00563" lon="6.96723">
        <ele>1058.99</ele>
        <time>2022-03-19T15:31:56.250Z</time>
      </trkpt>
      <trkpt lat="48.00553" lon="6.9673">
        <ele>1058.12</ele>
        <time>2022-03-19T15:32:06.000Z</time>
      </trkpt>
      <trkpt lat="48.00542" lon="6.96741">
        <ele>1056.94</ele>
        <time>2022-03-19T15:32:15.444Z</time>
      </trkpt>
      <trkpt lat="48.00542" lon="6.96747">
        <ele>1056.23</ele>
        <time>2022-03-19T15:32:25.000Z</time>
      </trkpt>
      <trkpt lat="48.00541" lon="6.96753">
        <ele>1054.68</ele>
        <time>2022-03-19T15:32:34.141Z</time>
      </trkpt>
      <trkpt lat="48.0054" lon="6.96753">
        <ele>1051.41</ele>
        <time>2022-03-19T15:32:52.000Z</time>
      </trkpt>
      <trkpt lat="48.00539" lon="6.96746">
        <ele>1050.09</ele>
        <time>2022-03-19T15:33:02.000Z</time>
      </trkpt>
      <trkpt lat="48.00538" lon="6.96743">
        <ele>1049.2</ele>
        <time>2022-03-19T15:33:12.000Z</time>
      </trkpt>
      <trkpt lat="48.00536" lon="6.96741">
        <ele>1048.46</ele>
        <time>2022-03-19T15:33:22.000Z</time>
      </trkpt>
      <trkpt lat="48.00537" lon="6.9674">
        <ele>1047.62</ele>
        <time>2022-03-19T15:33:32.000Z</time>
      </trkpt>
      <trkpt lat="48.00536" lon="6.9674">
        <ele>1046.62</ele>
        <time>2022-03-19T15:33:43.670Z</time>
      </trkpt>
      <trkpt lat="48.00532" lon="6.96738">
        <ele>1045.94</ele>
        <time>2022-03-19T15:33:55.000Z</time>
      </trkpt>
      <trkpt lat="48.00524" lon="6.96736">
        <ele>1045.13</ele>
        <time>2022-03-19T15:34:05.000Z</time>
      </trkpt>
      <trkpt lat="48.00514" lon="6.96741">
        <ele>1044.34</ele>
        <time>2022-03-19T15:34:14.460Z</time>
      </trkpt>
      <trkpt lat="48.00513" lon="6.96741">
        <ele>1043.89</ele>
        <time>2022-03-19T15:34:24.000Z</time>
      </trkpt>
      <trkpt lat="48.00518" lon="6.96744">
        <ele>1043.95</ele>
        <time>2022-03-19T15:34:34.000Z</time>
      </trkpt>
      <trkpt lat="48.00519" lon="6.96741">
        <ele>1043.95</ele>
        <time>2022-03-19T15:34:44.000Z</time>
      </trkpt>
      <trkpt lat="48.00516" lon="6.9674">
        <ele>1044</ele>
        <time>2022-03-19T15:34:54.000Z</time>
      </trkpt>
      <trkpt lat="48.00501" lon="6.96743">
        <ele>1043.2</ele>
        <time>2022-03-19T15:35:03.473Z</time>
      </trkpt>
      <trkpt lat="48.00488" lon="6.96752">
        <ele>1042.65</ele>
        <time>2022-03-19T15:35:13.089Z</time>
      </trkpt>
      <trkpt lat="48.0048" lon="6.96756">
        <ele>1041.9</ele>
        <time>2022-03-19T15:35:22.433Z</time>
      </trkpt>
      <trkpt lat="48.00473" lon="6.96765">
        <ele>1040.42</ele>
        <time>2022-03-19T15:35:33.000Z</time>
      </trkpt>
      <trkpt lat="48.00467" lon="6.9677">
        <ele>1039.6</ele>
        <time>2022-03-19T15:35:43.000Z</time>
      </trkpt>
      <trkpt lat="48.00459" lon="6.96768">
        <ele>1039.2</ele>
        <time>2022-03-19T15:35:52.254Z</time>
      </trkpt>
      <trkpt lat="48.00447" lon="6.96766">
        <ele>1039.12</ele>
        <time>2022-03-19T15:36:02.000Z</time>
      </trkpt>
      <trkpt lat="48.00444" lon="6.96764">
        <ele>1038.29</ele>
        <time>2022-03-19T15:36:12.000Z</time>
      </trkpt>
      <trkpt lat="48.00441" lon="6.96762">
        <ele>1037.94</ele>
        <time>2022-03-19T15:36:21.875Z</time>
      </trkpt>
      <trkpt lat="48.00428" lon="6.96761">
        <ele>1037.18</ele>
        <time>2022-03-19T15:36:32.000Z</time>
      </trkpt>
      <trkpt lat="48.00417" lon="6.96758">
        <ele>1035.91</ele>
        <time>2022-03-19T15:36:42.000Z</time>
      </trkpt>
      <trkpt lat="48.00413" lon="6.96757">
        <ele>1034.74</ele>
        <time>2022-03-19T15:36:51.700Z</time>
      </trkpt>
      <trkpt lat="48.00405" lon="6.96754">
        <ele>1033.4</ele>
        <time>2022-03-19T15:37:00.799Z</time>
      </trkpt>
      <trkpt lat="48.004" lon="6.96743">
        <ele>1032.31</ele>
        <time>2022-03-19T15:37:10.000Z</time>
      </trkpt>
      <trkpt lat="48.0039" lon="6.96731">
        <ele>1031.41</ele>
        <time>2022-03-19T15:37:19.593Z</time>
      </trkpt>
      <trkpt lat="48.00384" lon="6.96724">
        <ele>1030.74</ele>
        <time>2022-03-19T15:37:30.000Z</time>
      </trkpt>
      <trkpt lat="48.00376" lon="6.9673">
        <ele>1030.24</ele>
        <time>2022-03-19T15:37:40.000Z</time>
      </trkpt>
      <trkpt lat="48.00372" lon="6.96722">
        <ele>1030.14</ele>
        <time>2022-03-19T15:37:49.519Z</time>
      </trkpt>
      <trkpt lat="48.00373" lon="6.96705">
        <ele>1029.67</ele>
        <time>2022-03-19T15:37:59.569Z</time>
      </trkpt>
      <trkpt lat="48.00378" lon="6.96689">
        <ele>1028.81</ele>
        <time>2022-03-19T15:38:10.000Z</time>
      </trkpt>
      <trkpt lat="48.00379" lon="6.96678">
        <ele>1027.82</ele>
        <time>2022-03-19T15:38:20.000Z</time>
      </trkpt>
      <trkpt lat="48.00378" lon="6.96676">
        <ele>1027.08</ele>
        <time>2022-03-19T15:38:30.000Z</time>
      </trkpt>
      <trkpt lat="48.00377" lon="6.96674">
        <ele>1025.87</ele>
        <time>2022-03-19T15:38:54.000Z</time>
      </trkpt>
      <trkpt lat="48.00377" lon="6.96667">
        <ele>1025.39</ele>
        <time>2022-03-19T15:39:04.000Z</time>
      </trkpt>
      <trkpt lat="48.00378" lon="6.96656">
        <ele>1025.02</ele>
        <time>2022-03-19T15:39:13.032Z</time>
      </trkpt>
      <trkpt lat="48.0038" lon="6.96653">
        <ele>1024.65</ele>
        <time>2022-03-19T15:39:22.601Z</time>
      </trkpt>
      <trkpt lat="48.00385" lon="6.96632">
        <ele>1024.23</ele>
        <time>2022-03-19T15:39:33.000Z</time>
      </trkpt>
      <trkpt lat="48.00385" lon="6.96609">
        <ele>1023.72</ele>
        <time>2022-03-19T15:39:43.000Z</time>
      </trkpt>
      <trkpt lat="48.00382" lon="6.96593">
        <ele>1023.47</ele>
        <time>2022-03-19T15:39:52.756Z</time>
      </trkpt>
      <trkpt lat="48.00375" lon="6.96576">
        <ele>1023.43</ele>
        <time>2022-03-19T15:40:02.290Z</time>
      </trkpt>
      <trkpt lat="48.00376" lon="6.96569">
        <ele>1025.3</ele>
        <time>2022-03-19T15:40:12.000Z</time>
      </trkpt>
      <trkpt lat="48.00382" lon="6.96574">
        <ele>1026.36</ele>
        <time>2022-03-19T15:40:22.000Z</time>
      </trkpt>
      <trkpt lat="48.00388" lon="6.96576">
        <ele>1025.51</ele>
        <time>2022-03-19T15:40:31.533Z</time>
      </trkpt>
      <trkpt lat="48.00397" lon="6.96574">
        <ele>1028.76</ele>
        <time>2022-03-19T15:40:41.000Z</time>
      </trkpt>
      <trkpt lat="48.00408" lon="6.9657">
        <ele>1029.62</ele>
        <time>2022-03-19T15:40:50.133Z</time>
      </trkpt>
      <trkpt lat="48.00416" lon="6.96562">
        <ele>1028.73</ele>
        <time>2022-03-19T15:40:59.493Z</time>
      </trkpt>
      <trkpt lat="48.0042" lon="6.96548">
        <ele>1027.7</ele>
        <time>2022-03-19T15:41:09.000Z</time>
      </trkpt>
      <trkpt lat="48.00422" lon="6.96533">
        <ele>1026.77</ele>
        <time>2022-03-19T15:41:18.917Z</time>
      </trkpt>
      <trkpt lat="48.00423" lon="6.96521">
        <ele>1029.97</ele>
        <time>2022-03-19T15:41:28.000Z</time>
      </trkpt>
      <trkpt lat="48.00427" lon="6.96504">
        <ele>1035.45</ele>
        <time>2022-03-19T15:41:37.731Z</time>
      </trkpt>
      <trkpt lat="48.00432" lon="6.96494">
        <ele>1035.93</ele>
        <time>2022-03-19T15:41:47.274Z</time>
      </trkpt>
      <trkpt lat="48.00446" lon="6.96512">
        <ele>1035.11</ele>
        <time>2022-03-19T15:41:57.000Z</time>
      </trkpt>
      <trkpt lat="48.00479" lon="6.96591">
        <ele>1033.05</ele>
        <time>2022-03-19T15:42:06.879Z</time>
      </trkpt>
      <trkpt lat="48.00495" lon="6.96595">
        <ele>1031.85</ele>
        <time>2022-03-19T15:42:16.455Z</time>
      </trkpt>
      <trkpt lat="48.00509" lon="6.96585">
        <ele>1030.78</ele>
        <time>2022-03-19T15:42:27.000Z</time>
      </trkpt>
      <trkpt lat="48.00517" lon="6.96577">
        <ele>1029.43</ele>
        <time>2022-03-19T15:42:36.273Z</time>
      </trkpt>
      <trkpt lat="48.00529" lon="6.96571">
        <ele>1028.15</ele>
        <time>2022-03-19T15:42:45.422Z</time>
      </trkpt>
      <trkpt lat="48.00535" lon="6.96567">
        <ele>1026.79</ele>
        <time>2022-03-19T15:42:54.678Z</time>
      </trkpt>
      <trkpt lat="48.00545" lon="6.96569">
        <ele>1025.22</ele>
        <time>2022-03-19T15:43:05.000Z</time>
      </trkpt>
      <trkpt lat="48.00557" lon="6.96563">
        <ele>1023.17</ele>
        <time>2022-03-19T15:43:14.335Z</time>
      </trkpt>
      <trkpt lat="48.00565" lon="6.96548">
        <ele>1021.93</ele>
        <time>2022-03-19T15:43:24.000Z</time>
      </trkpt>
      <trkpt lat="48.00573" lon="6.96536">
        <ele>1020.56</ele>
        <time>2022-03-19T15:43:33.696Z</time>
      </trkpt>
      <trkpt lat="48.00582" lon="6.96529">
        <ele>1019.37</ele>
        <time>2022-03-19T15:43:42.823Z</time>
      </trkpt>
      <trkpt lat="48.00595" lon="6.96522">
        <ele>1018.2</ele>
        <time>2022-03-19T15:43:52.396Z</time>
      </trkpt>
      <trkpt lat="48.00604" lon="6.96512">
        <ele>1017.32</ele>
        <time>2022-03-19T15:44:01.735Z</time>
      </trkpt>
      <trkpt lat="48.00611" lon="6.96499">
        <ele>1016.49</ele>
        <time>2022-03-19T15:44:11.059Z</time>
      </trkpt>
      <trkpt lat="48.00617" lon="6.96488">
        <ele>1015.35</ele>
        <time>2022-03-19T15:44:20.314Z</time>
      </trkpt>
      <trkpt lat="48.00623" lon="6.96477">
        <ele>1014.14</ele>
        <time>2022-03-19T15:44:29.676Z</time>
      </trkpt>
      <trkpt lat="48.00628" lon="6.96467">
        <ele>1012.98</ele>
        <time>2022-03-19T15:44:39.000Z</time>
      </trkpt>
      <trkpt lat="48.00632" lon="6.96453">
        <ele>1011.27</ele>
        <time>2022-03-19T15:44:49.000Z</time>
      </trkpt>
      <trkpt lat="48.00638" lon="6.96445">
        <ele>1009.75</ele>
        <time>2022-03-19T15:44:59.000Z</time>
      </trkpt>
      <trkpt lat="48.00648" lon="6.96441">
        <ele>1007.34</ele>
        <time>2022-03-19T15:45:08.317Z</time>
      </trkpt>
      <trkpt lat="48.00659" lon="6.96434">
        <ele>1005.25</ele>
        <time>2022-03-19T15:45:19.000Z</time>
      </trkpt>
      <trkpt lat="48.00666" lon="6.96424">
        <ele>1003.61</ele>
        <time>2022-03-19T15:45:29.000Z</time>
      </trkpt>
      <trkpt lat="48.00675" lon="6.96412">
        <ele>1002.38</ele>
        <time>2022-03-19T15:45:39.000Z</time>
      </trkpt>
      <trkpt lat="48.00685" lon="6.96398">
        <ele>1001.71</ele>
        <time>2022-03-19T15:45:48.634Z</time>
      </trkpt>
      <trkpt lat="48.00691" lon="6.96379">
        <ele>1001.27</ele>
        <time>2022-03-19T15:45:58.000Z</time>
      </trkpt>
      <trkpt lat="48.007" lon="6.96365">
        <ele>1001.13</ele>
        <time>2022-03-19T15:46:07.751Z</time>
      </trkpt>
      <trkpt lat="48.00707" lon="6.96353">
        <ele>1001.24</ele>
        <time>2022-03-19T15:46:17.000Z</time>
      </trkpt>
      <trkpt lat="48.00716" lon="6.96346">
        <ele>1001.52</ele>
        <time>2022-03-19T15:46:26.332Z</time>
      </trkpt>
      <trkpt lat="48.00724" lon="6.96338">
        <ele>1001.74</ele>
        <time>2022-03-19T15:46:35.456Z</time>
      </trkpt>
      <trkpt lat="48.00735" lon="6.9633">
        <ele>1001.97</ele>
        <time>2022-03-19T15:46:44.818Z</time>
      </trkpt>
      <trkpt lat="48.00746" lon="6.96323">
        <ele>1002.41</ele>
        <time>2022-03-19T15:46:55.000Z</time>
      </trkpt>
      <trkpt lat="48.00756" lon="6.96313">
        <ele>1003.32</ele>
        <time>2022-03-19T15:47:04.351Z</time>
      </trkpt>
      <trkpt lat="48.00764" lon="6.96302">
        <ele>1004.1</ele>
        <time>2022-03-19T15:47:13.444Z</time>
      </trkpt>
      <trkpt lat="48.0077" lon="6.963">
        <ele>1004.66</ele>
        <time>2022-03-19T15:47:23.000Z</time>
      </trkpt>
      <trkpt lat="48.00769" lon="6.96308">
        <ele>1005.03</ele>
        <time>2022-03-19T15:47:33.000Z</time>
      </trkpt>
      <trkpt lat="48.00771" lon="6.96315">
        <ele>1005.14</ele>
        <time>2022-03-19T15:47:43.000Z</time>
      </trkpt>
      <trkpt lat="48.00775" lon="6.96325">
        <ele>1004.95</ele>
        <time>2022-03-19T15:47:53.000Z</time>
      </trkpt>
      <trkpt lat="48.00776" lon="6.96326">
        <ele>1004.74</ele>
        <time>2022-03-19T15:48:04.000Z</time>
      </trkpt>
      <trkpt lat="48.00775" lon="6.9633">
        <ele>1004.53</ele>
        <time>2022-03-19T15:48:14.000Z</time>
      </trkpt>
      <trkpt lat="48.00774" lon="6.96331">
        <ele>1004.4</ele>
        <time>2022-03-19T15:48:24.000Z</time>
      </trkpt>
      <trkpt lat="48.00775" lon="6.96332">
        <ele>1003.79</ele>
        <time>2022-03-19T15:49:36.000Z</time>
      </trkpt>
      <trkpt lat="48.00776" lon="6.96332">
        <ele>1003.73</ele>
        <time>2022-03-19T15:49:46.000Z</time>
      </trkpt>
      <trkpt lat="48.00777" lon="6.96333">
        <ele>1003.63</ele>
        <time>2022-03-19T15:49:59.000Z</time>
      </trkpt>
      <trkpt lat="48.00776" lon="6.96334">
        <ele>1003.05</ele>
        <time>2022-03-19T15:52:17.000Z</time>
      </trkpt>
      <trkpt lat="48.00775" lon="6.96335">
        <ele>1003.01</ele>
        <time>2022-03-19T15:52:27.000Z</time>
      </trkpt>
      <trkpt lat="48.00773" lon="6.96337">
        <ele>1002.78</ele>
        <time>2022-03-19T15:52:37.000Z</time>
      </trkpt>
      <trkpt lat="48.00768" lon="6.96331">
        <ele>1002.06</ele>
        <time>2022-03-19T15:52:46.739Z</time>
      </trkpt>
      <trkpt lat="48.00771" lon="6.96326">
        <ele>1001.41</ele>
        <time>2022-03-19T15:52:56.000Z</time>
      </trkpt>
      <trkpt lat="48.00776" lon="6.96314">
        <ele>1000.21</ele>
        <time>2022-03-19T15:53:05.279Z</time>
      </trkpt>
      <trkpt lat="48.00787" lon="6.96294">
        <ele>998.99</ele>
        <time>2022-03-19T15:53:14.790Z</time>
      </trkpt>
      <trkpt lat="48.00795" lon="6.96283">
        <ele>998.11</ele>
        <time>2022-03-19T15:53:24.000Z</time>
      </trkpt>
      <trkpt lat="48.008" lon="6.96267">
        <ele>997.2</ele>
        <time>2022-03-19T15:53:33.216Z</time>
      </trkpt>
      <trkpt lat="48.00806" lon="6.96253">
        <ele>996.6</ele>
        <time>2022-03-19T15:53:44.000Z</time>
      </trkpt>
      <trkpt lat="48.00816" lon="6.96236">
        <ele>996.35</ele>
        <time>2022-03-19T15:53:53.411Z</time>
      </trkpt>
      <trkpt lat="48.00821" lon="6.96219">
        <ele>996.27</ele>
        <time>2022-03-19T15:54:03.000Z</time>
      </trkpt>
      <trkpt lat="48.00831" lon="6.96201">
        <ele>996.43</ele>
        <time>2022-03-19T15:54:14.000Z</time>
      </trkpt>
      <trkpt lat="48.00837" lon="6.96191">
        <ele>996.71</ele>
        <time>2022-03-19T15:54:24.000Z</time>
      </trkpt>
      <trkpt lat="48.0085" lon="6.96184">
        <ele>996.85</ele>
        <time>2022-03-19T15:54:33.371Z</time>
      </trkpt>
      <trkpt lat="48.00861" lon="6.9618">
        <ele>996.92</ele>
        <time>2022-03-19T15:54:43.000Z</time>
      </trkpt>
      <trkpt lat="48.00872" lon="6.96169">
        <ele>997.06</ele>
        <time>2022-03-19T15:54:52.954Z</time>
      </trkpt>
      <trkpt lat="48.00882" lon="6.96157">
        <ele>997.27</ele>
        <time>2022-03-19T15:55:02.501Z</time>
      </trkpt>
      <trkpt lat="48.00891" lon="6.96152">
        <ele>997.36</ele>
        <time>2022-03-19T15:55:12.000Z</time>
      </trkpt>
      <trkpt lat="48.00905" lon="6.96151">
        <ele>997.6</ele>
        <time>2022-03-19T15:55:22.000Z</time>
      </trkpt>
      <trkpt lat="48.00914" lon="6.96144">
        <ele>997.75</ele>
        <time>2022-03-19T15:55:31.329Z</time>
      </trkpt>
      <trkpt lat="48.00919" lon="6.96132">
        <ele>997.89</ele>
        <time>2022-03-19T15:55:40.460Z</time>
      </trkpt>
      <trkpt lat="48.00923" lon="6.96124">
        <ele>997.88</ele>
        <time>2022-03-19T15:55:51.000Z</time>
      </trkpt>
      <trkpt lat="48.00927" lon="6.96118">
        <ele>997.79</ele>
        <time>2022-03-19T15:56:01.000Z</time>
      </trkpt>
      <trkpt lat="48.00931" lon="6.96112">
        <ele>997.53</ele>
        <time>2022-03-19T15:56:11.000Z</time>
      </trkpt>
      <trkpt lat="48.00933" lon="6.96106">
        <ele>997.22</ele>
        <time>2022-03-19T15:56:20.660Z</time>
      </trkpt>
      <trkpt lat="48.00933" lon="6.96094">
        <ele>997.05</ele>
        <time>2022-03-19T15:56:31.000Z</time>
      </trkpt>
      <trkpt lat="48.00934" lon="6.96078">
        <ele>996.58</ele>
        <time>2022-03-19T15:56:41.000Z</time>
      </trkpt>
      <trkpt lat="48.00937" lon="6.9606">
        <ele>996.06</ele>
        <time>2022-03-19T15:56:50.263Z</time>
      </trkpt>
      <trkpt lat="48.00938" lon="6.96047">
        <ele>995.46</ele>
        <time>2022-03-19T15:56:59.616Z</time>
      </trkpt>
      <trkpt lat="48.00939" lon="6.96033">
        <ele>994.93</ele>
        <time>2022-03-19T15:57:09.000Z</time>
      </trkpt>
      <trkpt lat="48.00942" lon="6.96019">
        <ele>994.4</ele>
        <time>2022-03-19T15:57:18.399Z</time>
      </trkpt>
      <trkpt lat="48.00943" lon="6.96006">
        <ele>993.94</ele>
        <time>2022-03-19T15:57:27.618Z</time>
      </trkpt>
      <trkpt lat="48.00941" lon="6.95987">
        <ele>993.74</ele>
        <time>2022-03-19T15:57:38.000Z</time>
      </trkpt>
      <trkpt lat="48.00937" lon="6.95977">
        <ele>993.65</ele>
        <time>2022-03-19T15:57:47.771Z</time>
      </trkpt>
      <trkpt lat="48.0094" lon="6.95969">
        <ele>993.34</ele>
        <time>2022-03-19T15:57:57.375Z</time>
      </trkpt>
      <trkpt lat="48.00945" lon="6.95958">
        <ele>992.75</ele>
        <time>2022-03-19T15:58:06.855Z</time>
      </trkpt>
      <trkpt lat="48.00946" lon="6.95945">
        <ele>991.85</ele>
        <time>2022-03-19T15:58:16.000Z</time>
      </trkpt>
      <trkpt lat="48.00952" lon="6.95928">
        <ele>990.61</ele>
        <time>2022-03-19T15:58:25.721Z</time>
      </trkpt>
      <trkpt lat="48.00955" lon="6.95918">
        <ele>989.28</ele>
        <time>2022-03-19T15:58:35.000Z</time>
      </trkpt>
      <trkpt lat="48.00955" lon="6.95899">
        <ele>987.66</ele>
        <time>2022-03-19T15:58:44.340Z</time>
      </trkpt>
      <trkpt lat="48.00957" lon="6.95882">
        <ele>986.81</ele>
        <time>2022-03-19T15:58:54.000Z</time>
      </trkpt>
      <trkpt lat="48.00958" lon="6.95868">
        <ele>986.23</ele>
        <time>2022-03-19T15:59:04.000Z</time>
      </trkpt>
      <trkpt lat="48.00955" lon="6.95846">
        <ele>986.03</ele>
        <time>2022-03-19T15:59:13.558Z</time>
      </trkpt>
      <trkpt lat="48.00955" lon="6.95833">
        <ele>986.01</ele>
        <time>2022-03-19T15:59:23.000Z</time>
      </trkpt>
      <trkpt lat="48.00955" lon="6.95817">
        <ele>985.98</ele>
        <time>2022-03-19T15:59:32.573Z</time>
      </trkpt>
      <trkpt lat="48.00951" lon="6.95801">
        <ele>985.86</ele>
        <time>2022-03-19T15:59:42.000Z</time>
      </trkpt>
      <trkpt lat="48.00952" lon="6.95781">
        <ele>985.64</ele>
        <time>2022-03-19T15:59:51.034Z</time>
      </trkpt>
      <trkpt lat="48.00956" lon="6.95765">
        <ele>985.37</ele>
        <time>2022-03-19T16:00:01.000Z</time>
      </trkpt>
      <trkpt lat="48.00967" lon="6.95757">
        <ele>984.97</ele>
        <time>2022-03-19T16:00:10.414Z</time>
      </trkpt>
      <trkpt lat="48.00977" lon="6.95748">
        <ele>984.85</ele>
        <time>2022-03-19T16:00:20.000Z</time>
      </trkpt>
      <trkpt lat="48.00983" lon="6.95733">
        <ele>984.94</ele>
        <time>2022-03-19T16:00:29.877Z</time>
      </trkpt>
      <trkpt lat="48.00982" lon="6.95722">
        <ele>985.35</ele>
        <time>2022-03-19T16:00:39.000Z</time>
      </trkpt>
      <trkpt lat="48.00987" lon="6.95706">
        <ele>985.72</ele>
        <time>2022-03-19T16:00:48.618Z</time>
      </trkpt>
      <trkpt lat="48.00988" lon="6.95685">
        <ele>985.69</ele>
        <time>2022-03-19T16:00:57.756Z</time>
      </trkpt>
      <trkpt lat="48.00987" lon="6.95667">
        <ele>985.66</ele>
        <time>2022-03-19T16:01:07.904Z</time>
      </trkpt>
      <trkpt lat="48.00984" lon="6.95646">
        <ele>985.67</ele>
        <time>2022-03-19T16:01:17.534Z</time>
      </trkpt>
      <trkpt lat="48.00981" lon="6.95634">
        <ele>985.38</ele>
        <time>2022-03-19T16:01:27.000Z</time>
      </trkpt>
      <trkpt lat="48.00986" lon="6.95628">
        <ele>984.67</ele>
        <time>2022-03-19T16:01:36.337Z</time>
      </trkpt>
      <trkpt lat="48.00987" lon="6.95618">
        <ele>983.69</ele>
        <time>2022-03-19T16:01:45.433Z</time>
      </trkpt>
      <trkpt lat="48.00986" lon="6.95606">
        <ele>982.64</ele>
        <time>2022-03-19T16:01:54.511Z</time>
      </trkpt>
      <trkpt lat="48.00985" lon="6.95593">
        <ele>981.33</ele>
        <time>2022-03-19T16:02:03.728Z</time>
      </trkpt>
      <trkpt lat="48.00985" lon="6.95579">
        <ele>980.09</ele>
        <time>2022-03-19T16:02:13.000Z</time>
      </trkpt>
      <trkpt lat="48.0098" lon="6.95565">
        <ele>978.49</ele>
        <time>2022-03-19T16:02:24.000Z</time>
      </trkpt>
      <trkpt lat="48.0098" lon="6.95549">
        <ele>976.53</ele>
        <time>2022-03-19T16:02:33.352Z</time>
      </trkpt>
      <trkpt lat="48.00984" lon="6.95538">
        <ele>975.36</ele>
        <time>2022-03-19T16:02:43.000Z</time>
      </trkpt>
      <trkpt lat="48.00988" lon="6.95522">
        <ele>973.82</ele>
        <time>2022-03-19T16:02:53.000Z</time>
      </trkpt>
      <trkpt lat="48.00989" lon="6.95508">
        <ele>972.45</ele>
        <time>2022-03-19T16:03:02.822Z</time>
      </trkpt>
      <trkpt lat="48.00994" lon="6.95502">
        <ele>971.47</ele>
        <time>2022-03-19T16:03:12.000Z</time>
      </trkpt>
      <trkpt lat="48.00999" lon="6.95493">
        <ele>970.1</ele>
        <time>2022-03-19T16:03:21.679Z</time>
      </trkpt>
      <trkpt lat="48.01005" lon="6.95481">
        <ele>969.1</ele>
        <time>2022-03-19T16:03:30.979Z</time>
      </trkpt>
      <trkpt lat="48.01007" lon="6.95467">
        <ele>968.02</ele>
        <time>2022-03-19T16:03:41.000Z</time>
      </trkpt>
      <trkpt lat="48.01007" lon="6.95451">
        <ele>966.48</ele>
        <time>2022-03-19T16:03:50.431Z</time>
      </trkpt>
      <trkpt lat="48.01003" lon="6.95441">
        <ele>965.03</ele>
        <time>2022-03-19T16:03:59.730Z</time>
      </trkpt>
      <trkpt lat="48.01004" lon="6.95425">
        <ele>963.24</ele>
        <time>2022-03-19T16:04:09.000Z</time>
      </trkpt>
      <trkpt lat="48.01009" lon="6.95417">
        <ele>961.55</ele>
        <time>2022-03-19T16:04:20.000Z</time>
      </trkpt>
      <trkpt lat="48.01015" lon="6.95412">
        <ele>959.55</ele>
        <time>2022-03-19T16:04:30.000Z</time>
      </trkpt>
      <trkpt lat="48.01013" lon="6.95399">
        <ele>957.32</ele>
        <time>2022-03-19T16:04:39.459Z</time>
      </trkpt>
      <trkpt lat="48.01012" lon="6.95381">
        <ele>955.88</ele>
        <time>2022-03-19T16:04:48.679Z</time>
      </trkpt>
      <trkpt lat="48.01008" lon="6.95367">
        <ele>954.36</ele>
        <time>2022-03-19T16:04:57.814Z</time>
      </trkpt>
      <trkpt lat="48.01001" lon="6.95348">
        <ele>952.83</ele>
        <time>2022-03-19T16:05:08.000Z</time>
      </trkpt>
      <trkpt lat="48.00994" lon="6.95335">
        <ele>952.2</ele>
        <time>2022-03-19T16:05:17.337Z</time>
      </trkpt>
      <trkpt lat="48.00988" lon="6.95327">
        <ele>950.94</ele>
        <time>2022-03-19T16:05:27.000Z</time>
      </trkpt>
      <trkpt lat="48.00989" lon="6.95317">
        <ele>948.84</ele>
        <time>2022-03-19T16:05:36.790Z</time>
      </trkpt>
      <trkpt lat="48.0099" lon="6.95307">
        <ele>946.78</ele>
        <time>2022-03-19T16:05:46.000Z</time>
      </trkpt>
      <trkpt lat="48.00995" lon="6.95296">
        <ele>944.74</ele>
        <time>2022-03-19T16:05:56.000Z</time>
      </trkpt>
      <trkpt lat="48.01" lon="6.95287">
        <ele>942.31</ele>
        <time>2022-03-19T16:06:06.000Z</time>
      </trkpt>
      <trkpt lat="48.00997" lon="6.9528">
        <ele>940.62</ele>
        <time>2022-03-19T16:06:16.000Z</time>
      </trkpt>
      <trkpt lat="48.00997" lon="6.95279">
        <ele>939.2</ele>
        <time>2022-03-19T16:06:26.330Z</time>
      </trkpt>
      <trkpt lat="48.00996" lon="6.95264">
        <ele>937.68</ele>
        <time>2022-03-19T16:06:36.000Z</time>
      </trkpt>
      <trkpt lat="48.00997" lon="6.95258">
        <ele>936.41</ele>
        <time>2022-03-19T16:06:46.000Z</time>
      </trkpt>
      <trkpt lat="48.00998" lon="6.95254">
        <ele>934.87</ele>
        <time>2022-03-19T16:06:55.841Z</time>
      </trkpt>
      <trkpt lat="48.01004" lon="6.95241">
        <ele>933.19</ele>
        <time>2022-03-19T16:07:06.000Z</time>
      </trkpt>
      <trkpt lat="48.01007" lon="6.95236">
        <ele>931.35</ele>
        <time>2022-03-19T16:07:15.596Z</time>
      </trkpt>
      <trkpt lat="48.01011" lon="6.9523">
        <ele>929.83</ele>
        <time>2022-03-19T16:07:24.651Z</time>
      </trkpt>
      <trkpt lat="48.01011" lon="6.9522">
        <ele>928.33</ele>
        <time>2022-03-19T16:07:35.000Z</time>
      </trkpt>
      <trkpt lat="48.01007" lon="6.95201">
        <ele>926.5</ele>
        <time>2022-03-19T16:07:45.000Z</time>
      </trkpt>
      <trkpt lat="48.0101" lon="6.95183">
        <ele>925.12</ele>
        <time>2022-03-19T16:07:55.000Z</time>
      </trkpt>
      <trkpt lat="48.01013" lon="6.95168">
        <ele>923.95</ele>
        <time>2022-03-19T16:08:04.360Z</time>
      </trkpt>
      <trkpt lat="48.01016" lon="6.9515">
        <ele>923.16</ele>
        <time>2022-03-19T16:08:15.000Z</time>
      </trkpt>
      <trkpt lat="48.0102" lon="6.95137">
        <ele>921.8</ele>
        <time>2022-03-19T16:08:24.158Z</time>
      </trkpt>
      <trkpt lat="48.01022" lon="6.95125">
        <ele>920.83</ele>
        <time>2022-03-19T16:08:33.681Z</time>
      </trkpt>
      <trkpt lat="48.0103" lon="6.95127">
        <ele>920.03</ele>
        <time>2022-03-19T16:08:43.000Z</time>
      </trkpt>
      <trkpt lat="48.01036" lon="6.95118">
        <ele>918.68</ele>
        <time>2022-03-19T16:08:52.393Z</time>
      </trkpt>
      <trkpt lat="48.01044" lon="6.95113">
        <ele>917.19</ele>
        <time>2022-03-19T16:09:01.624Z</time>
      </trkpt>
      <trkpt lat="48.01053" lon="6.95103">
        <ele>915.77</ele>
        <time>2022-03-19T16:09:11.194Z</time>
      </trkpt>
      <trkpt lat="48.01059" lon="6.95102">
        <ele>914.95</ele>
        <time>2022-03-19T16:09:21.000Z</time>
      </trkpt>
      <trkpt lat="48.01059" lon="6.95094">
        <ele>914.29</ele>
        <time>2022-03-19T16:09:31.000Z</time>
      </trkpt>
      <trkpt lat="48.01061" lon="6.9508">
        <ele>913.52</ele>
        <time>2022-03-19T16:09:40.352Z</time>
      </trkpt>
      <trkpt lat="48.0106" lon="6.95068">
        <ele>912.88</ele>
        <time>2022-03-19T16:09:49.876Z</time>
      </trkpt>
      <trkpt lat="48.01064" lon="6.95058">
        <ele>912.07</ele>
        <time>2022-03-19T16:09:59.482Z</time>
      </trkpt>
      <trkpt lat="48.01072" lon="6.95048">
        <ele>910.93</ele>
        <time>2022-03-19T16:10:10.000Z</time>
      </trkpt>
      <trkpt lat="48.01082" lon="6.95036">
        <ele>909.16</ele>
        <time>2022-03-19T16:10:19.531Z</time>
      </trkpt>
      <trkpt lat="48.0109" lon="6.95022">
        <ele>907.78</ele>
        <time>2022-03-19T16:10:30.000Z</time>
      </trkpt>
      <trkpt lat="48.01096" lon="6.95009">
        <ele>906.25</ele>
        <time>2022-03-19T16:10:41.000Z</time>
      </trkpt>
      <trkpt lat="48.01103" lon="6.95004">
        <ele>904.7</ele>
        <time>2022-03-19T16:10:51.000Z</time>
      </trkpt>
      <trkpt lat="48.01112" lon="6.95003">
        <ele>902.47</ele>
        <time>2022-03-19T16:11:00.476Z</time>
      </trkpt>
      <trkpt lat="48.01119" lon="6.94997">
        <ele>900.99</ele>
        <time>2022-03-19T16:11:11.000Z</time>
      </trkpt>
      <trkpt lat="48.01125" lon="6.94991">
        <ele>899.69</ele>
        <time>2022-03-19T16:11:20.560Z</time>
      </trkpt>
      <trkpt lat="48.01132" lon="6.94991">
        <ele>897.89</ele>
        <time>2022-03-19T16:11:29.837Z</time>
      </trkpt>
      <trkpt lat="48.01141" lon="6.94989">
        <ele>896.52</ele>
        <time>2022-03-19T16:11:39.000Z</time>
      </trkpt>
      <trkpt lat="48.0115" lon="6.94985">
        <ele>894.9</ele>
        <time>2022-03-19T16:11:49.000Z</time>
      </trkpt>
      <trkpt lat="48.0116" lon="6.94983">
        <ele>893.1</ele>
        <time>2022-03-19T16:11:58.502Z</time>
      </trkpt>
      <trkpt lat="48.01167" lon="6.94969">
        <ele>891.89</ele>
        <time>2022-03-19T16:12:07.920Z</time>
      </trkpt>
      <trkpt lat="48.01169" lon="6.9496">
        <ele>891.21</ele>
        <time>2022-03-19T16:12:17.861Z</time>
      </trkpt>
      <trkpt lat="48.01176" lon="6.94954">
        <ele>890.48</ele>
        <time>2022-03-19T16:12:28.000Z</time>
      </trkpt>
      <trkpt lat="48.01183" lon="6.94947">
        <ele>889.62</ele>
        <time>2022-03-19T16:12:39.000Z</time>
      </trkpt>
      <trkpt lat="48.01183" lon="6.94948">
        <ele>888.85</ele>
        <time>2022-03-19T16:12:49.000Z</time>
      </trkpt>
      <trkpt lat="48.01185" lon="6.94948">
        <ele>887.86</ele>
        <time>2022-03-19T16:13:01.000Z</time>
      </trkpt>
      <trkpt lat="48.0119" lon="6.94944">
        <ele>886.53</ele>
        <time>2022-03-19T16:13:10.382Z</time>
      </trkpt>
      <trkpt lat="48.01196" lon="6.94942">
        <ele>885.14</ele>
        <time>2022-03-19T16:13:19.657Z</time>
      </trkpt>
      <trkpt lat="48.01198" lon="6.94938">
        <ele>883.99</ele>
        <time>2022-03-19T16:13:29.000Z</time>
      </trkpt>
      <trkpt lat="48.01207" lon="6.94934">
        <ele>882.13</ele>
        <time>2022-03-19T16:13:38.755Z</time>
      </trkpt>
      <trkpt lat="48.01216" lon="6.94929">
        <ele>880.4</ele>
        <time>2022-03-19T16:13:47.853Z</time>
      </trkpt>
      <trkpt lat="48.01226" lon="6.94925">
        <ele>878.92</ele>
        <time>2022-03-19T16:13:57.000Z</time>
      </trkpt>
      <trkpt lat="48.01236" lon="6.94914">
        <ele>876.91</ele>
        <time>2022-03-19T16:14:06.369Z</time>
      </trkpt>
      <trkpt lat="48.01242" lon="6.94903">
        <ele>875.69</ele>
        <time>2022-03-19T16:14:15.456Z</time>
      </trkpt>
      <trkpt lat="48.01244" lon="6.94893">
        <ele>873.84</ele>
        <time>2022-03-19T16:14:24.898Z</time>
      </trkpt>
      <trkpt lat="48.01249" lon="6.94889">
        <ele>871.32</ele>
        <time>2022-03-19T16:14:34.429Z</time>
      </trkpt>
      <trkpt lat="48.01257" lon="6.94885">
        <ele>868.74</ele>
        <time>2022-03-19T16:14:43.843Z</time>
      </trkpt>
      <trkpt lat="48.01267" lon="6.94891">
        <ele>866.41</ele>
        <time>2022-03-19T16:14:54.000Z</time>
      </trkpt>
      <trkpt lat="48.01277" lon="6.94893">
        <ele>864.47</ele>
        <time>2022-03-19T16:15:04.000Z</time>
      </trkpt>
      <trkpt lat="48.01284" lon="6.94881">
        <ele>862.89</ele>
        <time>2022-03-19T16:15:14.000Z</time>
      </trkpt>
      <trkpt lat="48.01288" lon="6.94883">
        <ele>860.59</ele>
        <time>2022-03-19T16:15:23.771Z</time>
      </trkpt>
      <trkpt lat="48.01293" lon="6.9489">
        <ele>858.9</ele>
        <time>2022-03-19T16:15:33.000Z</time>
      </trkpt>
      <trkpt lat="48.01305" lon="6.94894">
        <ele>856.97</ele>
        <time>2022-03-19T16:15:42.271Z</time>
      </trkpt>
      <trkpt lat="48.01309" lon="6.94894">
        <ele>855.88</ele>
        <time>2022-03-19T16:15:51.907Z</time>
      </trkpt>
      <trkpt lat="48.01304" lon="6.949">
        <ele>854.51</ele>
        <time>2022-03-19T16:16:02.000Z</time>
      </trkpt>
      <trkpt lat="48.01292" lon="6.94929">
        <ele>852.87</ele>
        <time>2022-03-19T16:16:11.521Z</time>
      </trkpt>
      <trkpt lat="48.01292" lon="6.94946">
        <ele>851.9</ele>
        <time>2022-03-19T16:16:21.000Z</time>
      </trkpt>
      <trkpt lat="48.01296" lon="6.9494">
        <ele>850.15</ele>
        <time>2022-03-19T16:16:30.209Z</time>
      </trkpt>
      <trkpt lat="48.01305" lon="6.94935">
        <ele>848.8</ele>
        <time>2022-03-19T16:16:39.531Z</time>
      </trkpt>
      <trkpt lat="48.01311" lon="6.94928">
        <ele>847.81</ele>
        <time>2022-03-19T16:16:49.000Z</time>
      </trkpt>
      <trkpt lat="48.01318" lon="6.94922">
        <ele>846.87</ele>
        <time>2022-03-19T16:16:59.000Z</time>
      </trkpt>
      <trkpt lat="48.0132" lon="6.94919">
        <ele>846.03</ele>
        <time>2022-03-19T16:17:09.000Z</time>
      </trkpt>
      <trkpt lat="48.01319" lon="6.94918">
        <ele>844.99</ele>
        <time>2022-03-19T16:17:18.892Z</time>
      </trkpt>
      <trkpt lat="48.01325" lon="6.94915">
        <ele>843.84</ele>
        <time>2022-03-19T16:17:28.000Z</time>
      </trkpt>
      <trkpt lat="48.01336" lon="6.94906">
        <ele>842.15</ele>
        <time>2022-03-19T16:17:38.000Z</time>
      </trkpt>
      <trkpt lat="48.01344" lon="6.94899">
        <ele>840.29</ele>
        <time>2022-03-19T16:17:47.716Z</time>
      </trkpt>
      <trkpt lat="48.01354" lon="6.94896">
        <ele>838.79</ele>
        <time>2022-03-19T16:17:56.750Z</time>
      </trkpt>
      <trkpt lat="48.0136" lon="6.94885">
        <ele>837.74</ele>
        <time>2022-03-19T16:18:06.000Z</time>
      </trkpt>
      <trkpt lat="48.01366" lon="6.94868">
        <ele>836.52</ele>
        <time>2022-03-19T16:18:16.000Z</time>
      </trkpt>
      <trkpt lat="48.01372" lon="6.94852">
        <ele>835.58</ele>
        <time>2022-03-19T16:18:25.372Z</time>
      </trkpt>
      <trkpt lat="48.0138" lon="6.9485">
        <ele>834.93</ele>
        <time>2022-03-19T16:18:34.416Z</time>
      </trkpt>
      <trkpt lat="48.01388" lon="6.94848">
        <ele>834.12</ele>
        <time>2022-03-19T16:18:45.000Z</time>
      </trkpt>
      <trkpt lat="48.01395" lon="6.94839">
        <ele>833.24</ele>
        <time>2022-03-19T16:18:54.380Z</time>
      </trkpt>
      <trkpt lat="48.01399" lon="6.9483">
        <ele>831.86</ele>
        <time>2022-03-19T16:19:04.000Z</time>
      </trkpt>
      <trkpt lat="48.01401" lon="6.94825">
        <ele>830.32</ele>
        <time>2022-03-19T16:19:14.000Z</time>
      </trkpt>
      <trkpt lat="48.01401" lon="6.94826">
        <ele>829.46</ele>
        <time>2022-03-19T16:19:24.000Z</time>
      </trkpt>
      <trkpt lat="48.01401" lon="6.94831">
        <ele>828.56</ele>
        <time>2022-03-19T16:19:34.000Z</time>
      </trkpt>
      <trkpt lat="48.01404" lon="6.94827">
        <ele>827.69</ele>
        <time>2022-03-19T16:19:44.000Z</time>
      </trkpt>
      <trkpt lat="48.01416" lon="6.94824">
        <ele>825.9</ele>
        <time>2022-03-19T16:19:53.731Z</time>
      </trkpt>
      <trkpt lat="48.01429" lon="6.94816">
        <ele>824.33</ele>
        <time>2022-03-19T16:20:02.859Z</time>
      </trkpt>
      <trkpt lat="48.01439" lon="6.94814">
        <ele>822.79</ele>
        <time>2022-03-19T16:20:12.000Z</time>
      </trkpt>
      <trkpt lat="48.01449" lon="6.94812">
        <ele>820.99</ele>
        <time>2022-03-19T16:20:21.315Z</time>
      </trkpt>
      <trkpt lat="48.01453" lon="6.948">
        <ele>819.63</ele>
        <time>2022-03-19T16:20:31.000Z</time>
      </trkpt>
      <trkpt lat="48.01458" lon="6.94789">
        <ele>817.05</ele>
        <time>2022-03-19T16:20:40.394Z</time>
      </trkpt>
      <trkpt lat="48.01458" lon="6.94786">
        <ele>814.81</ele>
        <time>2022-03-19T16:20:49.693Z</time>
      </trkpt>
      <trkpt lat="48.01457" lon="6.94781">
        <ele>812.29</ele>
        <time>2022-03-19T16:20:59.000Z</time>
      </trkpt>
      <trkpt lat="48.01448" lon="6.94772">
        <ele>809.36</ele>
        <time>2022-03-19T16:21:09.000Z</time>
      </trkpt>
      <trkpt lat="48.01439" lon="6.94758">
        <ele>806.74</ele>
        <time>2022-03-19T16:21:18.641Z</time>
      </trkpt>
      <trkpt lat="48.0143" lon="6.94748">
        <ele>804.58</ele>
        <time>2022-03-19T16:21:28.000Z</time>
      </trkpt>
      <trkpt lat="48.01419" lon="6.94744">
        <ele>801.99</ele>
        <time>2022-03-19T16:21:38.000Z</time>
      </trkpt>
      <trkpt lat="48.01471" lon="6.94829">
        <ele>800.74</ele>
        <time>2022-03-19T16:21:47.270Z</time>
      </trkpt>
      <trkpt lat="48.01511" lon="6.94832">
        <ele>799.41</ele>
        <time>2022-03-19T16:21:56.733Z</time>
      </trkpt>
      <trkpt lat="48.01546" lon="6.94847">
        <ele>797.64</ele>
        <time>2022-03-19T16:22:06.175Z</time>
      </trkpt>
      <trkpt lat="48.0157" lon="6.94855">
        <ele>796.31</ele>
        <time>2022-03-19T16:22:15.618Z</time>
      </trkpt>
      <trkpt lat="48.01589" lon="6.94868">
        <ele>795.31</ele>
        <time>2022-03-19T16:22:25.000Z</time>
      </trkpt>
      <trkpt lat="48.01603" lon="6.94878">
        <ele>793.95</ele>
        <time>2022-03-19T16:22:35.000Z</time>
      </trkpt>
      <trkpt lat="48.01623" lon="6.94881">
        <ele>792.85</ele>
        <time>2022-03-19T16:22:44.753Z</time>
      </trkpt>
      <trkpt lat="48.01637" lon="6.9488">
        <ele>791.57</ele>
        <time>2022-03-19T16:22:53.871Z</time>
      </trkpt>
      <trkpt lat="48.01649" lon="6.94885">
        <ele>790.78</ele>
        <time>2022-03-19T16:23:03.373Z</time>
      </trkpt>
      <trkpt lat="48.01663" lon="6.94891">
        <ele>790.28</ele>
        <time>2022-03-19T16:23:12.916Z</time>
      </trkpt>
      <trkpt lat="48.01676" lon="6.94892">
        <ele>789.85</ele>
        <time>2022-03-19T16:23:22.411Z</time>
      </trkpt>
      <trkpt lat="48.01684" lon="6.9489">
        <ele>789.42</ele>
        <time>2022-03-19T16:23:33.000Z</time>
      </trkpt>
      <trkpt lat="48.01686" lon="6.94892">
        <ele>789.04</ele>
        <time>2022-03-19T16:23:42.380Z</time>
      </trkpt>
      <trkpt lat="48.0169" lon="6.94899">
        <ele>788.66</ele>
        <time>2022-03-19T16:23:51.476Z</time>
      </trkpt>
      <trkpt lat="48.01695" lon="6.94909">
        <ele>788.51</ele>
        <time>2022-03-19T16:24:01.000Z</time>
      </trkpt>
      <trkpt lat="48.01698" lon="6.94919">
        <ele>788.23</ele>
        <time>2022-03-19T16:24:10.177Z</time>
      </trkpt>
      <trkpt lat="48.017" lon="6.94926">
        <ele>788.12</ele>
        <time>2022-03-19T16:24:19.394Z</time>
      </trkpt>
      <trkpt lat="48.01703" lon="6.94936">
        <ele>788.2</ele>
        <time>2022-03-19T16:24:29.000Z</time>
      </trkpt>
      <trkpt lat="48.01708" lon="6.94947">
        <ele>788.37</ele>
        <time>2022-03-19T16:24:38.474Z</time>
      </trkpt>
      <trkpt lat="48.01707" lon="6.9496">
        <ele>788.43</ele>
        <time>2022-03-19T16:24:48.000Z</time>
      </trkpt>
      <trkpt lat="48.01705" lon="6.94966">
        <ele>788.55</ele>
        <time>2022-03-19T16:24:58.000Z</time>
      </trkpt>
      <trkpt lat="48.01707" lon="6.94969">
        <ele>788.35</ele>
        <time>2022-03-19T16:25:07.313Z</time>
      </trkpt>
      <trkpt lat="48.01725" lon="6.94979">
        <ele>788.02</ele>
        <time>2022-03-19T16:25:16.491Z</time>
      </trkpt>
      <trkpt lat="48.01743" lon="6.94985">
        <ele>787.82</ele>
        <time>2022-03-19T16:25:25.670Z</time>
      </trkpt>
      <trkpt lat="48.01772" lon="6.94989">
        <ele>787.38</ele>
        <time>2022-03-19T16:25:35.000Z</time>
      </trkpt>
      <trkpt lat="48.01785" lon="6.94999">
        <ele>787.46</ele>
        <time>2022-03-19T16:25:44.615Z</time>
      </trkpt>
      <trkpt lat="48.01797" lon="6.95008">
        <ele>787.56</ele>
        <time>2022-03-19T16:25:53.733Z</time>
      </trkpt>
      <trkpt lat="48.01809" lon="6.9501">
        <ele>788.13</ele>
        <time>2022-03-19T16:26:03.276Z</time>
      </trkpt>
      <trkpt lat="48.01825" lon="6.95">
        <ele>788.07</ele>
        <time>2022-03-19T16:26:12.801Z</time>
      </trkpt>
      <trkpt lat="48.01839" lon="6.94998">
        <ele>789.75</ele>
        <time>2022-03-19T16:26:22.516Z</time>
      </trkpt>
      <trkpt lat="48.01853" lon="6.95001">
        <ele>790.49</ele>
        <time>2022-03-19T16:26:32.000Z</time>
      </trkpt>
      <trkpt lat="48.0187" lon="6.95009">
        <ele>791.28</ele>
        <time>2022-03-19T16:26:41.340Z</time>
      </trkpt>
      <trkpt lat="48.01886" lon="6.95014">
        <ele>791.1</ele>
        <time>2022-03-19T16:26:50.681Z</time>
      </trkpt>
      <trkpt lat="48.01902" lon="6.9502">
        <ele>790.98</ele>
        <time>2022-03-19T16:26:59.838Z</time>
      </trkpt>
      <trkpt lat="48.01918" lon="6.95022">
        <ele>791.08</ele>
        <time>2022-03-19T16:27:09.000Z</time>
      </trkpt>
      <trkpt lat="48.01931" lon="6.95023">
        <ele>792.87</ele>
        <time>2022-03-19T16:27:18.633Z</time>
      </trkpt>
      <trkpt lat="48.01934" lon="6.95033">
        <ele>796.07</ele>
        <time>2022-03-19T16:27:27.698Z</time>
      </trkpt>
      <trkpt lat="48.01926" lon="6.95063">
        <ele>799.08</ele>
        <time>2022-03-19T16:27:36.875Z</time>
      </trkpt>
      <trkpt lat="48.01937" lon="6.95077">
        <ele>800.96</ele>
        <time>2022-03-19T16:27:46.651Z</time>
      </trkpt>
      <trkpt lat="48.01946" lon="6.95088">
        <ele>803.33</ele>
        <time>2022-03-19T16:27:55.899Z</time>
      </trkpt>
      <trkpt lat="48.01948" lon="6.95098">
        <ele>805.52</ele>
        <time>2022-03-19T16:28:05.474Z</time>
      </trkpt>
      <trkpt lat="48.01952" lon="6.95108">
        <ele>807.41</ele>
        <time>2022-03-19T16:28:14.712Z</time>
      </trkpt>
      <trkpt lat="48.01961" lon="6.95113">
        <ele>808.93</ele>
        <time>2022-03-19T16:28:25.000Z</time>
      </trkpt>
      <trkpt lat="48.01974" lon="6.9512">
        <ele>810.34</ele>
        <time>2022-03-19T16:28:34.236Z</time>
      </trkpt>
      <trkpt lat="48.01985" lon="6.95136">
        <ele>811.55</ele>
        <time>2022-03-19T16:28:43.432Z</time>
      </trkpt>
      <trkpt lat="48.01996" lon="6.95151">
        <ele>812.49</ele>
        <time>2022-03-19T16:28:52.752Z</time>
      </trkpt>
      <trkpt lat="48.02006" lon="6.95164">
        <ele>811.92</ele>
        <time>2022-03-19T16:29:01.779Z</time>
      </trkpt>
      <trkpt lat="48.02015" lon="6.95176">
        <ele>810.5</ele>
        <time>2022-03-19T16:29:12.000Z</time>
      </trkpt>
      <trkpt lat="48.02025" lon="6.95177">
        <ele>808.95</ele>
        <time>2022-03-19T16:29:21.290Z</time>
      </trkpt>
      <trkpt lat="48.02032" lon="6.95179">
        <ele>807.57</ele>
        <time>2022-03-19T16:29:31.000Z</time>
      </trkpt>
      <trkpt lat="48.02044" lon="6.95193">
        <ele>806.41</ele>
        <time>2022-03-19T16:29:40.175Z</time>
      </trkpt>
      <trkpt lat="48.02048" lon="6.95181">
        <ele>805.68</ele>
        <time>2022-03-19T16:29:49.323Z</time>
      </trkpt>
      <trkpt lat="48.02043" lon="6.95157">
        <ele>805.12</ele>
        <time>2022-03-19T16:29:58.399Z</time>
      </trkpt>
      <trkpt lat="48.02047" lon="6.95142">
        <ele>804.58</ele>
        <time>2022-03-19T16:30:08.000Z</time>
      </trkpt>
      <trkpt lat="48.02059" lon="6.95135">
        <ele>804.05</ele>
        <time>2022-03-19T16:30:18.000Z</time>
      </trkpt>
      <trkpt lat="48.02063" lon="6.95154">
        <ele>803.8</ele>
        <time>2022-03-19T16:30:27.099Z</time>
      </trkpt>
      <trkpt lat="48.02071" lon="6.95149">
        <ele>803.63</ele>
        <time>2022-03-19T16:30:37.000Z</time>
      </trkpt>
      <trkpt lat="48.02082" lon="6.9513">
        <ele>803.42</ele>
        <time>2022-03-19T16:30:46.633Z</time>
      </trkpt>
      <trkpt lat="48.02088" lon="6.95123">
        <ele>803.29</ele>
        <time>2022-03-19T16:30:55.831Z</time>
      </trkpt>
      <trkpt lat="48.0209" lon="6.95114">
        <ele>803.18</ele>
        <time>2022-03-19T16:31:05.355Z</time>
      </trkpt>
      <trkpt lat="48.0209" lon="6.95105">
        <ele>803.1</ele>
        <time>2022-03-19T16:31:14.379Z</time>
      </trkpt>
      <trkpt lat="48.02086" lon="6.95098">
        <ele>803.02</ele>
        <time>2022-03-19T16:31:24.000Z</time>
      </trkpt>
      <trkpt lat="48.0208" lon="6.95089">
        <ele>802.96</ele>
        <time>2022-03-19T16:31:34.000Z</time>
      </trkpt>
      <trkpt lat="48.02082" lon="6.95103">
        <ele>802.9</ele>
        <time>2022-03-19T16:31:44.000Z</time>
      </trkpt>
      <trkpt lat="48.02088" lon="6.95114">
        <ele>802.85</ele>
        <time>2022-03-19T16:31:55.000Z</time>
      </trkpt>
      <trkpt lat="48.02117" lon="6.95291">
        <ele>803.25</ele>
        <time>2022-03-19T16:32:05.000Z</time>
      </trkpt>
      <trkpt lat="48.02135" lon="6.9533">
        <ele>804.03</ele>
        <time>2022-03-19T16:32:14.713Z</time>
      </trkpt>
      <trkpt lat="48.02144" lon="6.95347">
        <ele>803.84</ele>
        <time>2022-03-19T16:32:24.000Z</time>
      </trkpt>
      <trkpt lat="48.0215" lon="6.95369">
        <ele>804.3</ele>
        <time>2022-03-19T16:32:33.799Z</time>
      </trkpt>
      <trkpt lat="48.02158" lon="6.95384">
        <ele>804.71</ele>
        <time>2022-03-19T16:32:42.876Z</time>
      </trkpt>
      <trkpt lat="48.02162" lon="6.9539">
        <ele>805.06</ele>
        <time>2022-03-19T16:32:52.752Z</time>
      </trkpt>
      <trkpt lat="48.02169" lon="6.95385">
        <ele>805.47</ele>
        <time>2022-03-19T16:33:03.000Z</time>
      </trkpt>
      <trkpt lat="48.02176" lon="6.95381">
        <ele>806.26</ele>
        <time>2022-03-19T16:33:12.561Z</time>
      </trkpt>
      <trkpt lat="48.02175" lon="6.95366">
        <ele>806.88</ele>
        <time>2022-03-19T16:33:21.596Z</time>
      </trkpt>
      <trkpt lat="48.02171" lon="6.95361">
        <ele>807.29</ele>
        <time>2022-03-19T16:33:32.000Z</time>
      </trkpt>
      <trkpt lat="48.02169" lon="6.95357">
        <ele>807.53</ele>
        <time>2022-03-19T16:33:41.289Z</time>
      </trkpt>
      <trkpt lat="48.02169" lon="6.9536">
        <ele>807.74</ele>
        <time>2022-03-19T16:33:50.498Z</time>
      </trkpt>
      <trkpt lat="48.02173" lon="6.95364">
        <ele>807.91</ele>
        <time>2022-03-19T16:34:01.000Z</time>
      </trkpt>
      <trkpt lat="48.02178" lon="6.95369">
        <ele>808.06</ele>
        <time>2022-03-19T16:34:11.000Z</time>
      </trkpt>
      <trkpt lat="48.02185" lon="6.95377">
        <ele>808.22</ele>
        <time>2022-03-19T16:34:20.314Z</time>
      </trkpt>
      <trkpt lat="48.0219" lon="6.95385">
        <ele>808.34</ele>
        <time>2022-03-19T16:34:30.000Z</time>
      </trkpt>
      <trkpt lat="48.02191" lon="6.95386">
        <ele>808.47</ele>
        <time>2022-03-19T16:34:40.000Z</time>
      </trkpt>
      <trkpt lat="48.02189" lon="6.95389">
        <ele>808.59</ele>
        <time>2022-03-19T16:34:50.837Z</time>
      </trkpt>
      <trkpt lat="48.02186" lon="6.95402">
        <ele>808.78</ele>
        <time>2022-03-19T16:35:00.000Z</time>
      </trkpt>
      <trkpt lat="48.02182" lon="6.95449">
        <ele>809.25</ele>
        <time>2022-03-19T16:35:09.412Z</time>
      </trkpt>
      <trkpt lat="48.02185" lon="6.95489">
        <ele>809.68</ele>
        <time>2022-03-19T16:35:20.000Z</time>
      </trkpt>
      <trkpt lat="48.0219" lon="6.95487">
        <ele>809.51</ele>
        <time>2022-03-19T16:35:30.000Z</time>
      </trkpt>
      <trkpt lat="48.02195" lon="6.95481">
        <ele>805.43</ele>
        <time>2022-03-19T16:35:40.000Z</time>
      </trkpt>
      <trkpt lat="48.02203" lon="6.95481">
        <ele>798.69</ele>
        <time>2022-03-19T16:35:49.394Z</time>
      </trkpt>
      <trkpt lat="48.02207" lon="6.95482">
        <ele>793.21</ele>
        <time>2022-03-19T16:35:59.000Z</time>
      </trkpt>
      <trkpt lat="48.02211" lon="6.9548">
        <ele>787.39</ele>
        <time>2022-03-19T16:36:08.752Z</time>
      </trkpt>
      <trkpt lat="48.02213" lon="6.95474">
        <ele>782.87</ele>
        <time>2022-03-19T16:36:19.000Z</time>
      </trkpt>
      <trkpt lat="48.02217" lon="6.95466">
        <ele>777.86</ele>
        <time>2022-03-19T16:36:28.742Z</time>
      </trkpt>
      <trkpt lat="48.02222" lon="6.95457">
        <ele>774.44</ele>
        <time>2022-03-19T16:36:38.000Z</time>
      </trkpt>
      <trkpt lat="48.02217" lon="6.95462">
        <ele>770.68</ele>
        <time>2022-03-19T16:36:47.460Z</time>
      </trkpt>
      <trkpt lat="48.02218" lon="6.95453">
        <ele>766.58</ele>
        <time>2022-03-19T16:36:56.971Z</time>
      </trkpt>
      <trkpt lat="48.02218" lon="6.95448">
        <ele>762.75</ele>
        <time>2022-03-19T16:37:06.597Z</time>
      </trkpt>
      <trkpt lat="48.02216" lon="6.95442">
        <ele>758.15</ele>
        <time>2022-03-19T16:37:16.017Z</time>
      </trkpt>
      <trkpt lat="48.02218" lon="6.95456">
        <ele>755.83</ele>
        <time>2022-03-19T16:37:25.975Z</time>
      </trkpt>
      <trkpt lat="48.02216" lon="6.95445">
        <ele>752.6</ele>
        <time>2022-03-19T16:37:35.386Z</time>
      </trkpt>
      <trkpt lat="48.02218" lon="6.95455">
        <ele>750.75</ele>
        <time>2022-03-19T16:38:28.360Z</time>
      </trkpt>
      <trkpt lat="48.02245" lon="6.95465">
        <ele>748.58</ele>
        <time>2022-03-19T16:38:39.000Z</time>
      </trkpt>
      <trkpt lat="48.02254" lon="6.95543">
        <ele>744.63</ele>
        <time>2022-03-19T16:38:49.716Z</time>
      </trkpt>
      <trkpt lat="48.02296" lon="6.95794">
        <ele>745.7</ele>
        <time>2022-03-19T16:39:00.000Z</time>
      </trkpt>
      <trkpt lat="48.02336" lon="6.95823">
        <ele>747.17</ele>
        <time>2022-03-19T16:39:09.920Z</time>
      </trkpt>
      <trkpt lat="48.02367" lon="6.95847">
        <ele>750.92</ele>
        <time>2022-03-19T16:39:20.000Z</time>
      </trkpt>
      <trkpt lat="48.02402" lon="6.95858">
        <ele>754.94</ele>
        <time>2022-03-19T16:39:30.000Z</time>
      </trkpt>
      <trkpt lat="48.0242" lon="6.95861">
        <ele>761.85</ele>
        <time>2022-03-19T16:39:40.000Z</time>
      </trkpt>
      <trkpt lat="48.02429" lon="6.9587">
        <ele>769.16</ele>
        <time>2022-03-19T16:39:50.000Z</time>
      </trkpt>
      <trkpt lat="48.02434" lon="6.95885">
        <ele>777.06</ele>
        <time>2022-03-19T16:39:59.593Z</time>
      </trkpt>
      <trkpt lat="48.02436" lon="6.95902">
        <ele>784.07</ele>
        <time>2022-03-19T16:40:08.676Z</time>
      </trkpt>
      <trkpt lat="48.02436" lon="6.95919">
        <ele>789.99</ele>
        <time>2022-03-19T16:40:18.000Z</time>
      </trkpt>
      <trkpt lat="48.02441" lon="6.95935">
        <ele>797.23</ele>
        <time>2022-03-19T16:40:27.730Z</time>
      </trkpt>
      <trkpt lat="48.02447" lon="6.95949">
        <ele>802.04</ele>
        <time>2022-03-19T16:40:37.856Z</time>
      </trkpt>
      <trkpt lat="48.02463" lon="6.95945">
        <ele>805.66</ele>
        <time>2022-03-19T16:40:47.000Z</time>
      </trkpt>
      <trkpt lat="48.02472" lon="6.95939">
        <ele>809.85</ele>
        <time>2022-03-19T16:40:57.000Z</time>
      </trkpt>
      <trkpt lat="48.02472" lon="6.95932">
        <ele>812.97</ele>
        <time>2022-03-19T16:41:07.000Z</time>
      </trkpt>
      <trkpt lat="48.02472" lon="6.95932">
        <ele>813.21</ele>
        <time>2022-03-19T16:41:08.000Z</time>
      </trkpt>
    </trkseg>
  </trk>
</gpx>